<?xml version="1.0" encoding="UTF-8" standalone="no" ?>
<gpx xmlns="http://www.topografix.com/GPX/1/1" xmlns:xsi="http://www.w3.org/2001/XMLSchema-instance" xsi:schemaLocation="http://www.topografix.com/GPX/1/1 http://www.topografix.com/GPX/1/1/gpx.xsd" version="1.1" creator="VisuGPX - https://www.visugpx.com">
  <metadata>
    <name>2019-06-13-46-St Vincent Rive d'Olt</name>
    <desc><![CDATA[Randonnée d'environ 12Km pour près de 700m de dénivelé positif. Ce Circuit comporte deux belles montées et surtout une longue descente caillouteuse un peu scabreuse... attention à se munir de bâtons. ]]></desc>
  </metadata>
  <trk>
    <name><![CDATA[track]]></name>
    <trkseg>
      <trkpt lat="44.46509" lon="1.29998">
        <ele>101</ele>
        <time>2014-03-04T12:50:22Z</time>
      </trkpt>
      <trkpt lat="44.46511" lon="1.29993">
        <ele>118</ele>
        <time>2014-03-04T12:51:03Z</time>
      </trkpt>
      <trkpt lat="44.4651" lon="1.29989">
        <ele>113</ele>
        <time>2014-03-04T12:51:29Z</time>
      </trkpt>
      <trkpt lat="44.46507" lon="1.29989">
        <ele>114</ele>
        <time>2014-03-04T12:51:46Z</time>
      </trkpt>
      <trkpt lat="44.46509" lon="1.29987">
        <ele>114</ele>
        <time>2014-03-04T12:52:00Z</time>
      </trkpt>
      <trkpt lat="44.46513" lon="1.29979">
        <ele>114</ele>
        <time>2014-03-04T12:52:06Z</time>
      </trkpt>
      <trkpt lat="44.4652" lon="1.29963">
        <ele>113</ele>
        <time>2014-03-04T12:52:17Z</time>
      </trkpt>
      <trkpt lat="44.46516" lon="1.29949">
        <ele>111</ele>
        <time>2014-03-04T12:52:25Z</time>
      </trkpt>
      <trkpt lat="44.46517" lon="1.29946">
        <ele>107</ele>
        <time>2014-03-04T12:52:39Z</time>
      </trkpt>
      <trkpt lat="44.46498" lon="1.29937">
        <ele>104</ele>
        <time>2014-03-04T12:52:56Z</time>
      </trkpt>
      <trkpt lat="44.46496" lon="1.29938">
        <ele>104</ele>
        <time>2014-03-04T12:52:57Z</time>
      </trkpt>
      <trkpt lat="44.46494" lon="1.29941">
        <ele>104</ele>
        <time>2014-03-04T12:53:00Z</time>
      </trkpt>
      <trkpt lat="44.46486" lon="1.29953">
        <ele>105</ele>
        <time>2014-03-04T12:53:09Z</time>
      </trkpt>
      <trkpt lat="44.46483" lon="1.29959">
        <ele>106</ele>
        <time>2014-03-04T12:53:13Z</time>
      </trkpt>
      <trkpt lat="44.46476" lon="1.29974">
        <ele>107</ele>
        <time>2014-03-04T12:53:31Z</time>
      </trkpt>
      <trkpt lat="44.46475" lon="1.29975">
        <ele>107</ele>
        <time>2014-03-04T12:53:32Z</time>
      </trkpt>
      <trkpt lat="44.46472" lon="1.29979">
        <ele>107</ele>
        <time>2014-03-04T12:53:36Z</time>
      </trkpt>
      <trkpt lat="44.46469" lon="1.29983">
        <ele>107</ele>
        <time>2014-03-04T12:53:39Z</time>
      </trkpt>
      <trkpt lat="44.46463" lon="1.2999">
        <ele>108</ele>
        <time>2014-03-04T12:53:45Z</time>
      </trkpt>
      <trkpt lat="44.46455" lon="1.29989">
        <ele>106</ele>
        <time>2014-03-04T12:53:54Z</time>
      </trkpt>
      <trkpt lat="44.46453" lon="1.29987">
        <ele>106</ele>
        <time>2014-03-04T12:53:57Z</time>
      </trkpt>
      <trkpt lat="44.46441" lon="1.2998">
        <ele>105</ele>
        <time>2014-03-04T12:54:09Z</time>
      </trkpt>
      <trkpt lat="44.46437" lon="1.2997">
        <ele>106</ele>
        <time>2014-03-04T12:54:21Z</time>
      </trkpt>
      <trkpt lat="44.46442" lon="1.29965">
        <ele>109</ele>
        <time>2014-03-04T12:54:43Z</time>
      </trkpt>
      <trkpt lat="44.46449" lon="1.29957">
        <ele>113</ele>
        <time>2014-03-04T12:54:59Z</time>
      </trkpt>
      <trkpt lat="44.46437" lon="1.29956">
        <ele>116</ele>
        <time>2014-03-04T12:55:31Z</time>
      </trkpt>
      <trkpt lat="44.46429" lon="1.29951">
        <ele>120</ele>
        <time>2014-03-04T12:55:48Z</time>
      </trkpt>
      <trkpt lat="44.46428" lon="1.29937">
        <ele>123</ele>
        <time>2014-03-04T12:56:18Z</time>
      </trkpt>
      <trkpt lat="44.46429" lon="1.29927">
        <ele>124</ele>
        <time>2014-03-04T12:56:32Z</time>
      </trkpt>
      <trkpt lat="44.46431" lon="1.29915">
        <ele>127</ele>
        <time>2014-03-04T12:56:47Z</time>
      </trkpt>
      <trkpt lat="44.46432" lon="1.29905">
        <ele>130</ele>
        <time>2014-03-04T12:57:01Z</time>
      </trkpt>
      <trkpt lat="44.46433" lon="1.29898">
        <ele>133</ele>
        <time>2014-03-04T12:57:16Z</time>
      </trkpt>
      <trkpt lat="44.46433" lon="1.29886">
        <ele>135</ele>
        <time>2014-03-04T12:57:32Z</time>
      </trkpt>
      <trkpt lat="44.46434" lon="1.29877">
        <ele>136</ele>
        <time>2014-03-04T12:57:47Z</time>
      </trkpt>
      <trkpt lat="44.46432" lon="1.29873">
        <ele>137</ele>
        <time>2014-03-04T12:58:09Z</time>
      </trkpt>
      <trkpt lat="44.46427" lon="1.29868">
        <ele>139</ele>
        <time>2014-03-04T12:58:25Z</time>
      </trkpt>
      <trkpt lat="44.46426" lon="1.29868">
        <ele>139</ele>
        <time>2014-03-04T12:58:26Z</time>
      </trkpt>
      <trkpt lat="44.46414" lon="1.29864">
        <ele>141</ele>
        <time>2014-03-04T12:58:41Z</time>
      </trkpt>
      <trkpt lat="44.46406" lon="1.2986">
        <ele>142</ele>
        <time>2014-03-04T12:58:55Z</time>
      </trkpt>
      <trkpt lat="44.46402" lon="1.29858">
        <ele>143</ele>
        <time>2014-03-04T12:58:59Z</time>
      </trkpt>
      <trkpt lat="44.46397" lon="1.29856">
        <ele>144</ele>
        <time>2014-03-04T12:59:13Z</time>
      </trkpt>
      <trkpt lat="44.46387" lon="1.29849">
        <ele>144</ele>
        <time>2014-03-04T12:59:28Z</time>
      </trkpt>
      <trkpt lat="44.46381" lon="1.29844">
        <ele>144</ele>
        <time>2014-03-04T12:59:44Z</time>
      </trkpt>
      <trkpt lat="44.46375" lon="1.2984">
        <ele>144</ele>
        <time>2014-03-04T12:59:57Z</time>
      </trkpt>
      <trkpt lat="44.46366" lon="1.2983">
        <ele>147</ele>
        <time>2014-03-04T13:00:12Z</time>
      </trkpt>
      <trkpt lat="44.4636" lon="1.29825">
        <ele>148</ele>
        <time>2014-03-04T13:00:24Z</time>
      </trkpt>
      <trkpt lat="44.46352" lon="1.29817">
        <ele>148</ele>
        <time>2014-03-04T13:00:38Z</time>
      </trkpt>
      <trkpt lat="44.46346" lon="1.29809">
        <ele>149</ele>
        <time>2014-03-04T13:00:50Z</time>
      </trkpt>
      <trkpt lat="44.4634" lon="1.29804">
        <ele>150</ele>
        <time>2014-03-04T13:01:05Z</time>
      </trkpt>
      <trkpt lat="44.46333" lon="1.29802">
        <ele>152</ele>
        <time>2014-03-04T13:01:19Z</time>
      </trkpt>
      <trkpt lat="44.46327" lon="1.29799">
        <ele>154</ele>
        <time>2014-03-04T13:01:34Z</time>
      </trkpt>
      <trkpt lat="44.46317" lon="1.29795">
        <ele>158</ele>
        <time>2014-03-04T13:01:50Z</time>
      </trkpt>
      <trkpt lat="44.4631" lon="1.29793">
        <ele>161</ele>
        <time>2014-03-04T13:02:04Z</time>
      </trkpt>
      <trkpt lat="44.46301" lon="1.29789">
        <ele>164</ele>
        <time>2014-03-04T13:02:28Z</time>
      </trkpt>
      <trkpt lat="44.46294" lon="1.29788">
        <ele>165</ele>
        <time>2014-03-04T13:02:39Z</time>
      </trkpt>
      <trkpt lat="44.46285" lon="1.29787">
        <ele>172</ele>
        <time>2014-03-04T13:03:01Z</time>
      </trkpt>
      <trkpt lat="44.46273" lon="1.29784">
        <ele>175</ele>
        <time>2014-03-04T13:03:19Z</time>
      </trkpt>
      <trkpt lat="44.46267" lon="1.29779">
        <ele>176</ele>
        <time>2014-03-04T13:03:35Z</time>
      </trkpt>
      <trkpt lat="44.4626" lon="1.29772">
        <ele>178</ele>
        <time>2014-03-04T13:03:53Z</time>
      </trkpt>
      <trkpt lat="44.46256" lon="1.29768">
        <ele>180</ele>
        <time>2014-03-04T13:04:08Z</time>
      </trkpt>
      <trkpt lat="44.4625" lon="1.29764">
        <ele>186</ele>
        <time>2014-03-04T13:04:26Z</time>
      </trkpt>
      <trkpt lat="44.46248" lon="1.29762">
        <ele>187</ele>
        <time>2014-03-04T13:04:43Z</time>
      </trkpt>
      <trkpt lat="44.46248" lon="1.2976">
        <ele>188</ele>
        <time>2014-03-04T13:05:14Z</time>
      </trkpt>
      <trkpt lat="44.46246" lon="1.29762">
        <ele>188</ele>
        <time>2014-03-04T13:05:42Z</time>
      </trkpt>
      <trkpt lat="44.46239" lon="1.2976">
        <ele>189</ele>
        <time>2014-03-04T13:05:56Z</time>
      </trkpt>
      <trkpt lat="44.46228" lon="1.2975">
        <ele>191</ele>
        <time>2014-03-04T13:06:11Z</time>
      </trkpt>
      <trkpt lat="44.46226" lon="1.29749">
        <ele>191</ele>
        <time>2014-03-04T13:06:13Z</time>
      </trkpt>
      <trkpt lat="44.4622" lon="1.29747">
        <ele>192</ele>
        <time>2014-03-04T13:06:33Z</time>
      </trkpt>
      <trkpt lat="44.46212" lon="1.29745">
        <ele>193</ele>
        <time>2014-03-04T13:06:54Z</time>
      </trkpt>
      <trkpt lat="44.46202" lon="1.29743">
        <ele>198</ele>
        <time>2014-03-04T13:07:08Z</time>
      </trkpt>
      <trkpt lat="44.46196" lon="1.29739">
        <ele>200</ele>
        <time>2014-03-04T13:07:18Z</time>
      </trkpt>
      <trkpt lat="44.46187" lon="1.2973">
        <ele>201</ele>
        <time>2014-03-04T13:07:32Z</time>
      </trkpt>
      <trkpt lat="44.46183" lon="1.29723">
        <ele>201</ele>
        <time>2014-03-04T13:07:42Z</time>
      </trkpt>
      <trkpt lat="44.46177" lon="1.29718">
        <ele>201</ele>
        <time>2014-03-04T13:08:03Z</time>
      </trkpt>
      <trkpt lat="44.46173" lon="1.29711">
        <ele>202</ele>
        <time>2014-03-04T13:08:17Z</time>
      </trkpt>
      <trkpt lat="44.46168" lon="1.29703">
        <ele>203</ele>
        <time>2014-03-04T13:08:30Z</time>
      </trkpt>
      <trkpt lat="44.46164" lon="1.29698">
        <ele>204</ele>
        <time>2014-03-04T13:08:45Z</time>
      </trkpt>
      <trkpt lat="44.46155" lon="1.29692">
        <ele>205</ele>
        <time>2014-03-04T13:09:02Z</time>
      </trkpt>
      <trkpt lat="44.46147" lon="1.29687">
        <ele>207</ele>
        <time>2014-03-04T13:09:17Z</time>
      </trkpt>
      <trkpt lat="44.46139" lon="1.29681">
        <ele>208</ele>
        <time>2014-03-04T13:09:31Z</time>
      </trkpt>
      <trkpt lat="44.46135" lon="1.29677">
        <ele>209</ele>
        <time>2014-03-04T13:09:49Z</time>
      </trkpt>
      <trkpt lat="44.46128" lon="1.29671">
        <ele>212</ele>
        <time>2014-03-04T13:10:02Z</time>
      </trkpt>
      <trkpt lat="44.46122" lon="1.29666">
        <ele>213</ele>
        <time>2014-03-04T13:10:16Z</time>
      </trkpt>
      <trkpt lat="44.46115" lon="1.29661">
        <ele>215</ele>
        <time>2014-03-04T13:10:30Z</time>
      </trkpt>
      <trkpt lat="44.46107" lon="1.29655">
        <ele>215</ele>
        <time>2014-03-04T13:10:42Z</time>
      </trkpt>
      <trkpt lat="44.46101" lon="1.29647">
        <ele>218</ele>
        <time>2014-03-04T13:10:59Z</time>
      </trkpt>
      <trkpt lat="44.46093" lon="1.29641">
        <ele>221</ele>
        <time>2014-03-04T13:11:12Z</time>
      </trkpt>
      <trkpt lat="44.46085" lon="1.29634">
        <ele>223</ele>
        <time>2014-03-04T13:11:29Z</time>
      </trkpt>
      <trkpt lat="44.46077" lon="1.29629">
        <ele>225</ele>
        <time>2014-03-04T13:11:50Z</time>
      </trkpt>
      <trkpt lat="44.4607" lon="1.29619">
        <ele>228</ele>
        <time>2014-03-04T13:12:05Z</time>
      </trkpt>
      <trkpt lat="44.46063" lon="1.29611">
        <ele>229</ele>
        <time>2014-03-04T13:12:22Z</time>
      </trkpt>
      <trkpt lat="44.46055" lon="1.29603">
        <ele>230</ele>
        <time>2014-03-04T13:12:39Z</time>
      </trkpt>
      <trkpt lat="44.46047" lon="1.29593">
        <ele>232</ele>
        <time>2014-03-04T13:12:54Z</time>
      </trkpt>
      <trkpt lat="44.46046" lon="1.29592">
        <ele>232</ele>
        <time>2014-03-04T13:12:56Z</time>
      </trkpt>
      <trkpt lat="44.46039" lon="1.29585">
        <ele>234</ele>
        <time>2014-03-04T13:13:10Z</time>
      </trkpt>
      <trkpt lat="44.46035" lon="1.29578">
        <ele>234</ele>
        <time>2014-03-04T13:13:25Z</time>
      </trkpt>
      <trkpt lat="44.46029" lon="1.29568">
        <ele>238</ele>
        <time>2014-03-04T13:13:39Z</time>
      </trkpt>
      <trkpt lat="44.46024" lon="1.2956">
        <ele>239</ele>
        <time>2014-03-04T13:13:56Z</time>
      </trkpt>
      <trkpt lat="44.46015" lon="1.29551">
        <ele>240</ele>
        <time>2014-03-04T13:14:12Z</time>
      </trkpt>
      <trkpt lat="44.46008" lon="1.29538">
        <ele>239</ele>
        <time>2014-03-04T13:14:25Z</time>
      </trkpt>
      <trkpt lat="44.46003" lon="1.29525">
        <ele>238</ele>
        <time>2014-03-04T13:14:38Z</time>
      </trkpt>
      <trkpt lat="44.46001" lon="1.29511">
        <ele>239</ele>
        <time>2014-03-04T13:14:50Z</time>
      </trkpt>
      <trkpt lat="44.45996" lon="1.29498">
        <ele>239</ele>
        <time>2014-03-04T13:15:04Z</time>
      </trkpt>
      <trkpt lat="44.45989" lon="1.29486">
        <ele>239</ele>
        <time>2014-03-04T13:15:16Z</time>
      </trkpt>
      <trkpt lat="44.45989" lon="1.29482">
        <ele>239</ele>
        <time>2014-03-04T13:15:19Z</time>
      </trkpt>
      <trkpt lat="44.45986" lon="1.29474">
        <ele>240</ele>
        <time>2014-03-04T13:15:25Z</time>
      </trkpt>
      <trkpt lat="44.45981" lon="1.29463">
        <ele>243</ele>
        <time>2014-03-04T13:15:39Z</time>
      </trkpt>
      <trkpt lat="44.45974" lon="1.2945">
        <ele>245</ele>
        <time>2014-03-04T13:16:27Z</time>
      </trkpt>
      <trkpt lat="44.45967" lon="1.29442">
        <ele>248</ele>
        <time>2014-03-04T13:16:35Z</time>
      </trkpt>
      <trkpt lat="44.45954" lon="1.29424">
        <ele>250</ele>
        <time>2014-03-04T13:16:51Z</time>
      </trkpt>
      <trkpt lat="44.4595" lon="1.29419">
        <ele>251</ele>
        <time>2014-03-04T13:16:56Z</time>
      </trkpt>
      <trkpt lat="44.45942" lon="1.29399">
        <ele>253</ele>
        <time>2014-03-04T13:17:12Z</time>
      </trkpt>
      <trkpt lat="44.4594" lon="1.29394">
        <ele>253</ele>
        <time>2014-03-04T13:17:16Z</time>
      </trkpt>
      <trkpt lat="44.45938" lon="1.29388">
        <ele>254</ele>
        <time>2014-03-04T13:17:21Z</time>
      </trkpt>
      <trkpt lat="44.4593" lon="1.29374">
        <ele>254</ele>
        <time>2014-03-04T13:17:31Z</time>
      </trkpt>
      <trkpt lat="44.45926" lon="1.29373">
        <ele>254</ele>
        <time>2014-03-04T13:17:35Z</time>
      </trkpt>
      <trkpt lat="44.4592" lon="1.29374">
        <ele>254</ele>
        <time>2014-03-04T13:17:41Z</time>
      </trkpt>
      <trkpt lat="44.45903" lon="1.2937">
        <ele>252</ele>
        <time>2014-03-04T13:17:57Z</time>
      </trkpt>
      <trkpt lat="44.459" lon="1.29366">
        <ele>252</ele>
        <time>2014-03-04T13:18:02Z</time>
      </trkpt>
      <trkpt lat="44.45894" lon="1.2936">
        <ele>252</ele>
        <time>2014-03-04T13:18:09Z</time>
      </trkpt>
      <trkpt lat="44.45888" lon="1.29361">
        <ele>253</ele>
        <time>2014-03-04T13:18:14Z</time>
      </trkpt>
      <trkpt lat="44.45875" lon="1.29351">
        <ele>253</ele>
        <time>2014-03-04T13:18:26Z</time>
      </trkpt>
      <trkpt lat="44.45857" lon="1.29346">
        <ele>252</ele>
        <time>2014-03-04T13:18:42Z</time>
      </trkpt>
      <trkpt lat="44.45843" lon="1.29347">
        <ele>251</ele>
        <time>2014-03-04T13:18:54Z</time>
      </trkpt>
      <trkpt lat="44.45827" lon="1.2935">
        <ele>251</ele>
        <time>2014-03-04T13:19:08Z</time>
      </trkpt>
      <trkpt lat="44.4581" lon="1.29348">
        <ele>252</ele>
        <time>2014-03-04T13:19:23Z</time>
      </trkpt>
      <trkpt lat="44.45797" lon="1.29343">
        <ele>253</ele>
        <time>2014-03-04T13:19:35Z</time>
      </trkpt>
      <trkpt lat="44.4579" lon="1.29344">
        <ele>253</ele>
        <time>2014-03-04T13:19:41Z</time>
      </trkpt>
      <trkpt lat="44.45782" lon="1.29353">
        <ele>253</ele>
        <time>2014-03-04T13:19:50Z</time>
      </trkpt>
      <trkpt lat="44.45772" lon="1.29351">
        <ele>253</ele>
        <time>2014-03-04T13:20:01Z</time>
      </trkpt>
      <trkpt lat="44.45769" lon="1.29346">
        <ele>253</ele>
        <time>2014-03-04T13:20:06Z</time>
      </trkpt>
      <trkpt lat="44.45764" lon="1.29337">
        <ele>253</ele>
        <time>2014-03-04T13:20:13Z</time>
      </trkpt>
      <trkpt lat="44.45756" lon="1.29326">
        <ele>252</ele>
        <time>2014-03-04T13:20:25Z</time>
      </trkpt>
      <trkpt lat="44.45751" lon="1.29332">
        <ele>252</ele>
        <time>2014-03-04T13:20:31Z</time>
      </trkpt>
      <trkpt lat="44.45738" lon="1.2933">
        <ele>252</ele>
        <time>2014-03-04T13:20:42Z</time>
      </trkpt>
      <trkpt lat="44.45726" lon="1.29333">
        <ele>253</ele>
        <time>2014-03-04T13:20:53Z</time>
      </trkpt>
      <trkpt lat="44.45715" lon="1.29354">
        <ele>254</ele>
        <time>2014-03-04T13:21:09Z</time>
      </trkpt>
      <trkpt lat="44.45712" lon="1.29363">
        <ele>254</ele>
        <time>2014-03-04T13:21:15Z</time>
      </trkpt>
      <trkpt lat="44.45711" lon="1.29366">
        <ele>254</ele>
        <time>2014-03-04T13:21:17Z</time>
      </trkpt>
      <trkpt lat="44.45705" lon="1.29375">
        <ele>253</ele>
        <time>2014-03-04T13:21:24Z</time>
      </trkpt>
      <trkpt lat="44.45689" lon="1.29379">
        <ele>255</ele>
        <time>2014-03-04T13:21:40Z</time>
      </trkpt>
      <trkpt lat="44.45678" lon="1.2938">
        <ele>254</ele>
        <time>2014-03-04T13:21:51Z</time>
      </trkpt>
      <trkpt lat="44.45673" lon="1.29388">
        <ele>254</ele>
        <time>2014-03-04T13:21:58Z</time>
      </trkpt>
      <trkpt lat="44.45671" lon="1.29393">
        <ele>253</ele>
        <time>2014-03-04T13:22:02Z</time>
      </trkpt>
      <trkpt lat="44.45664" lon="1.294">
        <ele>253</ele>
        <time>2014-03-04T13:22:09Z</time>
      </trkpt>
      <trkpt lat="44.45657" lon="1.29395">
        <ele>251</ele>
        <time>2014-03-04T13:22:25Z</time>
      </trkpt>
      <trkpt lat="44.45655" lon="1.29395">
        <ele>250</ele>
        <time>2014-03-04T13:22:38Z</time>
      </trkpt>
      <trkpt lat="44.4565" lon="1.29399">
        <ele>250</ele>
        <time>2014-03-04T13:22:43Z</time>
      </trkpt>
      <trkpt lat="44.45648" lon="1.294">
        <ele>249</ele>
        <time>2014-03-04T13:22:45Z</time>
      </trkpt>
      <trkpt lat="44.45638" lon="1.2941">
        <ele>248</ele>
        <time>2014-03-04T13:22:56Z</time>
      </trkpt>
      <trkpt lat="44.45635" lon="1.29413">
        <ele>248</ele>
        <time>2014-03-04T13:22:59Z</time>
      </trkpt>
      <trkpt lat="44.45632" lon="1.29415">
        <ele>247</ele>
        <time>2014-03-04T13:23:02Z</time>
      </trkpt>
      <trkpt lat="44.45623" lon="1.29427">
        <ele>247</ele>
        <time>2014-03-04T13:23:12Z</time>
      </trkpt>
      <trkpt lat="44.45615" lon="1.29431">
        <ele>247</ele>
        <time>2014-03-04T13:23:21Z</time>
      </trkpt>
      <trkpt lat="44.45602" lon="1.29423">
        <ele>250</ele>
        <time>2014-03-04T13:23:36Z</time>
      </trkpt>
      <trkpt lat="44.45595" lon="1.29419">
        <ele>251</ele>
        <time>2014-03-04T13:24:07Z</time>
      </trkpt>
      <trkpt lat="44.45577" lon="1.29414">
        <ele>252</ele>
        <time>2014-03-04T13:24:24Z</time>
      </trkpt>
      <trkpt lat="44.45557" lon="1.29411">
        <ele>252</ele>
        <time>2014-03-04T13:24:41Z</time>
      </trkpt>
      <trkpt lat="44.45546" lon="1.2941">
        <ele>253</ele>
        <time>2014-03-04T13:24:50Z</time>
      </trkpt>
      <trkpt lat="44.45527" lon="1.29411">
        <ele>255</ele>
        <time>2014-03-04T13:25:06Z</time>
      </trkpt>
      <trkpt lat="44.45521" lon="1.29411">
        <ele>256</ele>
        <time>2014-03-04T13:25:11Z</time>
      </trkpt>
      <trkpt lat="44.45508" lon="1.29414">
        <ele>258</ele>
        <time>2014-03-04T13:25:22Z</time>
      </trkpt>
      <trkpt lat="44.4549" lon="1.2942">
        <ele>260</ele>
        <time>2014-03-04T13:25:38Z</time>
      </trkpt>
      <trkpt lat="44.45489" lon="1.29421">
        <ele>260</ele>
        <time>2014-03-04T13:25:39Z</time>
      </trkpt>
      <trkpt lat="44.45476" lon="1.29426">
        <ele>261</ele>
        <time>2014-03-04T13:25:51Z</time>
      </trkpt>
      <trkpt lat="44.45459" lon="1.29431">
        <ele>263</ele>
        <time>2014-03-04T13:26:06Z</time>
      </trkpt>
      <trkpt lat="44.45446" lon="1.29434">
        <ele>264</ele>
        <time>2014-03-04T13:26:18Z</time>
      </trkpt>
      <trkpt lat="44.45427" lon="1.29439">
        <ele>267</ele>
        <time>2014-03-04T13:26:34Z</time>
      </trkpt>
      <trkpt lat="44.45415" lon="1.29443">
        <ele>268</ele>
        <time>2014-03-04T13:26:44Z</time>
      </trkpt>
      <trkpt lat="44.45406" lon="1.29447">
        <ele>269</ele>
        <time>2014-03-04T13:26:53Z</time>
      </trkpt>
      <trkpt lat="44.45403" lon="1.29449">
        <ele>269</ele>
        <time>2014-03-04T13:26:56Z</time>
      </trkpt>
      <trkpt lat="44.45387" lon="1.29452">
        <ele>271</ele>
        <time>2014-03-04T13:27:10Z</time>
      </trkpt>
      <trkpt lat="44.45375" lon="1.29453">
        <ele>272</ele>
        <time>2014-03-04T13:27:23Z</time>
      </trkpt>
      <trkpt lat="44.45362" lon="1.29449">
        <ele>275</ele>
        <time>2014-03-04T13:27:43Z</time>
      </trkpt>
      <trkpt lat="44.45348" lon="1.29439">
        <ele>276</ele>
        <time>2014-03-04T13:27:58Z</time>
      </trkpt>
      <trkpt lat="44.45335" lon="1.29424">
        <ele>278</ele>
        <time>2014-03-04T13:28:12Z</time>
      </trkpt>
      <trkpt lat="44.45324" lon="1.29405">
        <ele>280</ele>
        <time>2014-03-04T13:28:27Z</time>
      </trkpt>
      <trkpt lat="44.45319" lon="1.29392">
        <ele>281</ele>
        <time>2014-03-04T13:28:36Z</time>
      </trkpt>
      <trkpt lat="44.45304" lon="1.29374">
        <ele>282</ele>
        <time>2014-03-04T13:28:53Z</time>
      </trkpt>
      <trkpt lat="44.45302" lon="1.29373">
        <ele>282</ele>
        <time>2014-03-04T13:28:55Z</time>
      </trkpt>
      <trkpt lat="44.45297" lon="1.29368">
        <ele>282</ele>
        <time>2014-03-04T13:29:00Z</time>
      </trkpt>
      <trkpt lat="44.45291" lon="1.29365">
        <ele>282</ele>
        <time>2014-03-04T13:29:05Z</time>
      </trkpt>
      <trkpt lat="44.45275" lon="1.29354">
        <ele>280</ele>
        <time>2014-03-04T13:29:20Z</time>
      </trkpt>
      <trkpt lat="44.45272" lon="1.29353">
        <ele>279</ele>
        <time>2014-03-04T13:29:23Z</time>
      </trkpt>
      <trkpt lat="44.45253" lon="1.29342">
        <ele>277</ele>
        <time>2014-03-04T13:29:40Z</time>
      </trkpt>
      <trkpt lat="44.45235" lon="1.29333">
        <ele>277</ele>
        <time>2014-03-04T13:29:56Z</time>
      </trkpt>
      <trkpt lat="44.45216" lon="1.29324">
        <ele>277</ele>
        <time>2014-03-04T13:30:12Z</time>
      </trkpt>
      <trkpt lat="44.45197" lon="1.29315">
        <ele>276</ele>
        <time>2014-03-04T13:30:29Z</time>
      </trkpt>
      <trkpt lat="44.45195" lon="1.29314">
        <ele>276</ele>
        <time>2014-03-04T13:30:31Z</time>
      </trkpt>
      <trkpt lat="44.45193" lon="1.29312">
        <ele>276</ele>
        <time>2014-03-04T13:30:33Z</time>
      </trkpt>
      <trkpt lat="44.45182" lon="1.29307">
        <ele>277</ele>
        <time>2014-03-04T13:30:42Z</time>
      </trkpt>
      <trkpt lat="44.45163" lon="1.29298">
        <ele>279</ele>
        <time>2014-03-04T13:30:59Z</time>
      </trkpt>
      <trkpt lat="44.45151" lon="1.29292">
        <ele>280</ele>
        <time>2014-03-04T13:31:13Z</time>
      </trkpt>
      <trkpt lat="44.45131" lon="1.29282">
        <ele>282</ele>
        <time>2014-03-04T13:31:31Z</time>
      </trkpt>
      <trkpt lat="44.45112" lon="1.29273">
        <ele>283</ele>
        <time>2014-03-04T13:31:47Z</time>
      </trkpt>
      <trkpt lat="44.4511" lon="1.29271">
        <ele>283</ele>
        <time>2014-03-04T13:31:49Z</time>
      </trkpt>
      <trkpt lat="44.45092" lon="1.29264">
        <ele>282</ele>
        <time>2014-03-04T13:32:06Z</time>
      </trkpt>
      <trkpt lat="44.4509" lon="1.29263">
        <ele>283</ele>
        <time>2014-03-04T13:32:08Z</time>
      </trkpt>
      <trkpt lat="44.45074" lon="1.29252">
        <ele>284</ele>
        <time>2014-03-04T13:32:23Z</time>
      </trkpt>
      <trkpt lat="44.45058" lon="1.29244">
        <ele>287</ele>
        <time>2014-03-04T13:32:38Z</time>
      </trkpt>
      <trkpt lat="44.45046" lon="1.29242">
        <ele>290</ele>
        <time>2014-03-04T13:32:52Z</time>
      </trkpt>
      <trkpt lat="44.45031" lon="1.29238">
        <ele>292</ele>
        <time>2014-03-04T13:33:09Z</time>
      </trkpt>
      <trkpt lat="44.45023" lon="1.29241">
        <ele>292</ele>
        <time>2014-03-04T13:33:23Z</time>
      </trkpt>
      <trkpt lat="44.45014" lon="1.29243">
        <ele>292</ele>
        <time>2014-03-04T13:33:43Z</time>
      </trkpt>
      <trkpt lat="44.44998" lon="1.29246">
        <ele>293</ele>
        <time>2014-03-04T13:33:58Z</time>
      </trkpt>
      <trkpt lat="44.44995" lon="1.29246">
        <ele>294</ele>
        <time>2014-03-04T13:34:01Z</time>
      </trkpt>
      <trkpt lat="44.44979" lon="1.29251">
        <ele>295</ele>
        <time>2014-03-04T13:34:17Z</time>
      </trkpt>
      <trkpt lat="44.4497" lon="1.29257">
        <ele>296</ele>
        <time>2014-03-04T13:34:25Z</time>
      </trkpt>
      <trkpt lat="44.44965" lon="1.29263">
        <ele>296</ele>
        <time>2014-03-04T13:34:30Z</time>
      </trkpt>
      <trkpt lat="44.44965" lon="1.2929">
        <ele>295</ele>
        <time>2014-03-04T13:34:47Z</time>
      </trkpt>
      <trkpt lat="44.44967" lon="1.29299">
        <ele>294</ele>
        <time>2014-03-04T13:34:53Z</time>
      </trkpt>
      <trkpt lat="44.44965" lon="1.29305">
        <ele>294</ele>
        <time>2014-03-04T13:34:58Z</time>
      </trkpt>
      <trkpt lat="44.44962" lon="1.29313">
        <ele>293</ele>
        <time>2014-03-04T13:35:03Z</time>
      </trkpt>
      <trkpt lat="44.44964" lon="1.2932">
        <ele>293</ele>
        <time>2014-03-04T13:35:09Z</time>
      </trkpt>
      <trkpt lat="44.44965" lon="1.29337">
        <ele>291</ele>
        <time>2014-03-04T13:35:20Z</time>
      </trkpt>
      <trkpt lat="44.44957" lon="1.29355">
        <ele>289</ele>
        <time>2014-03-04T13:35:33Z</time>
      </trkpt>
      <trkpt lat="44.44946" lon="1.29365">
        <ele>289</ele>
        <time>2014-03-04T13:35:50Z</time>
      </trkpt>
      <trkpt lat="44.4494" lon="1.29369">
        <ele>287</ele>
        <time>2014-03-04T13:35:57Z</time>
      </trkpt>
      <trkpt lat="44.44935" lon="1.2937">
        <ele>286</ele>
        <time>2014-03-04T13:36:02Z</time>
      </trkpt>
      <trkpt lat="44.44928" lon="1.29379">
        <ele>284</ele>
        <time>2014-03-04T13:36:13Z</time>
      </trkpt>
      <trkpt lat="44.44921" lon="1.29383">
        <ele>280</ele>
        <time>2014-03-04T13:36:28Z</time>
      </trkpt>
      <trkpt lat="44.44919" lon="1.29389">
        <ele>279</ele>
        <time>2014-03-04T13:36:47Z</time>
      </trkpt>
      <trkpt lat="44.44921" lon="1.29402">
        <ele>277</ele>
        <time>2014-03-04T13:37:21Z</time>
      </trkpt>
      <trkpt lat="44.44921" lon="1.2941">
        <ele>274</ele>
        <time>2014-03-04T13:37:37Z</time>
      </trkpt>
      <trkpt lat="44.4492" lon="1.29419">
        <ele>272</ele>
        <time>2014-03-04T13:37:50Z</time>
      </trkpt>
      <trkpt lat="44.44918" lon="1.29421">
        <ele>272</ele>
        <time>2014-03-04T13:38:16Z</time>
      </trkpt>
      <trkpt lat="44.44916" lon="1.29429">
        <ele>270</ele>
        <time>2014-03-04T13:38:26Z</time>
      </trkpt>
      <trkpt lat="44.44917" lon="1.29452">
        <ele>268</ele>
        <time>2014-03-04T13:38:41Z</time>
      </trkpt>
      <trkpt lat="44.44914" lon="1.29466">
        <ele>266</ele>
        <time>2014-03-04T13:38:56Z</time>
      </trkpt>
      <trkpt lat="44.44913" lon="1.29476">
        <ele>263</ele>
        <time>2014-03-04T13:39:10Z</time>
      </trkpt>
      <trkpt lat="44.44912" lon="1.29482">
        <ele>262</ele>
        <time>2014-03-04T13:39:25Z</time>
      </trkpt>
      <trkpt lat="44.44911" lon="1.2949">
        <ele>261</ele>
        <time>2014-03-04T13:39:41Z</time>
      </trkpt>
      <trkpt lat="44.44909" lon="1.29491">
        <ele>259</ele>
        <time>2014-03-04T13:39:54Z</time>
      </trkpt>
      <trkpt lat="44.44908" lon="1.29498">
        <ele>257</ele>
        <time>2014-03-04T13:40:08Z</time>
      </trkpt>
      <trkpt lat="44.44908" lon="1.295">
        <ele>256</ele>
        <time>2014-03-04T13:40:13Z</time>
      </trkpt>
      <trkpt lat="44.44905" lon="1.29504">
        <ele>256</ele>
        <time>2014-03-04T13:40:27Z</time>
      </trkpt>
      <trkpt lat="44.44902" lon="1.29507">
        <ele>255</ele>
        <time>2014-03-04T13:40:42Z</time>
      </trkpt>
      <trkpt lat="44.44901" lon="1.29508">
        <ele>254</ele>
        <time>2014-03-04T13:40:45Z</time>
      </trkpt>
      <trkpt lat="44.44898" lon="1.2951">
        <ele>252</ele>
        <time>2014-03-04T13:41:01Z</time>
      </trkpt>
      <trkpt lat="44.44897" lon="1.2951">
        <ele>252</ele>
        <time>2014-03-04T13:41:03Z</time>
      </trkpt>
      <trkpt lat="44.44892" lon="1.29512">
        <ele>249</ele>
        <time>2014-03-04T13:41:11Z</time>
      </trkpt>
      <trkpt lat="44.44884" lon="1.29517">
        <ele>246</ele>
        <time>2014-03-04T13:41:27Z</time>
      </trkpt>
      <trkpt lat="44.44877" lon="1.29529">
        <ele>240</ele>
        <time>2014-03-04T13:41:45Z</time>
      </trkpt>
      <trkpt lat="44.44874" lon="1.29541">
        <ele>237</ele>
        <time>2014-03-04T13:42:04Z</time>
      </trkpt>
      <trkpt lat="44.44874" lon="1.29544">
        <ele>236</ele>
        <time>2014-03-04T13:42:07Z</time>
      </trkpt>
      <trkpt lat="44.44873" lon="1.2956">
        <ele>230</ele>
        <time>2014-03-04T13:42:24Z</time>
      </trkpt>
      <trkpt lat="44.44875" lon="1.29571">
        <ele>227</ele>
        <time>2014-03-04T13:42:35Z</time>
      </trkpt>
      <trkpt lat="44.44873" lon="1.29578">
        <ele>225</ele>
        <time>2014-03-04T13:42:52Z</time>
      </trkpt>
      <trkpt lat="44.44868" lon="1.29586">
        <ele>222</ele>
        <time>2014-03-04T13:43:09Z</time>
      </trkpt>
      <trkpt lat="44.44866" lon="1.29595">
        <ele>219</ele>
        <time>2014-03-04T13:43:23Z</time>
      </trkpt>
      <trkpt lat="44.44864" lon="1.29596">
        <ele>218</ele>
        <time>2014-03-04T13:43:26Z</time>
      </trkpt>
      <trkpt lat="44.44854" lon="1.29603">
        <ele>211</ele>
        <time>2014-03-04T13:43:41Z</time>
      </trkpt>
      <trkpt lat="44.44849" lon="1.29609">
        <ele>208</ele>
        <time>2014-03-04T13:43:57Z</time>
      </trkpt>
      <trkpt lat="44.44841" lon="1.29618">
        <ele>206</ele>
        <time>2014-03-04T13:44:13Z</time>
      </trkpt>
      <trkpt lat="44.44837" lon="1.2962">
        <ele>203</ele>
        <time>2014-03-04T13:44:21Z</time>
      </trkpt>
      <trkpt lat="44.4483" lon="1.29627">
        <ele>199</ele>
        <time>2014-03-04T13:44:34Z</time>
      </trkpt>
      <trkpt lat="44.44824" lon="1.29632">
        <ele>194</ele>
        <time>2014-03-04T13:44:46Z</time>
      </trkpt>
      <trkpt lat="44.44822" lon="1.29635">
        <ele>192</ele>
        <time>2014-03-04T13:44:59Z</time>
      </trkpt>
      <trkpt lat="44.4482" lon="1.29642">
        <ele>191</ele>
        <time>2014-03-04T13:45:11Z</time>
      </trkpt>
      <trkpt lat="44.44819" lon="1.29648">
        <ele>190</ele>
        <time>2014-03-04T13:45:26Z</time>
      </trkpt>
      <trkpt lat="44.44814" lon="1.29654">
        <ele>189</ele>
        <time>2014-03-04T13:45:45Z</time>
      </trkpt>
      <trkpt lat="44.44809" lon="1.2966">
        <ele>187</ele>
        <time>2014-03-04T13:45:57Z</time>
      </trkpt>
      <trkpt lat="44.44802" lon="1.29671">
        <ele>183</ele>
        <time>2014-03-04T13:46:13Z</time>
      </trkpt>
      <trkpt lat="44.448" lon="1.29678">
        <ele>182</ele>
        <time>2014-03-04T13:46:28Z</time>
      </trkpt>
      <trkpt lat="44.44798" lon="1.29686">
        <ele>179</ele>
        <time>2014-03-04T13:46:40Z</time>
      </trkpt>
      <trkpt lat="44.44792" lon="1.29693">
        <ele>176</ele>
        <time>2014-03-04T13:46:54Z</time>
      </trkpt>
      <trkpt lat="44.44788" lon="1.29701">
        <ele>174</ele>
        <time>2014-03-04T13:47:13Z</time>
      </trkpt>
      <trkpt lat="44.44785" lon="1.29713">
        <ele>170</ele>
        <time>2014-03-04T13:47:30Z</time>
      </trkpt>
      <trkpt lat="44.44783" lon="1.29713">
        <ele>169</ele>
        <time>2014-03-04T13:47:32Z</time>
      </trkpt>
      <trkpt lat="44.44781" lon="1.2972">
        <ele>168</ele>
        <time>2014-03-04T13:47:51Z</time>
      </trkpt>
      <trkpt lat="44.44778" lon="1.2973">
        <ele>165</ele>
        <time>2014-03-04T13:48:07Z</time>
      </trkpt>
      <trkpt lat="44.44776" lon="1.29742">
        <ele>163</ele>
        <time>2014-03-04T13:48:30Z</time>
      </trkpt>
      <trkpt lat="44.44776" lon="1.29743">
        <ele>162</ele>
        <time>2014-03-04T13:48:32Z</time>
      </trkpt>
      <trkpt lat="44.4477" lon="1.29753">
        <ele>158</ele>
        <time>2014-03-04T13:48:45Z</time>
      </trkpt>
      <trkpt lat="44.4477" lon="1.29759">
        <ele>156</ele>
        <time>2014-03-04T13:48:50Z</time>
      </trkpt>
      <trkpt lat="44.44769" lon="1.29764">
        <ele>155</ele>
        <time>2014-03-04T13:48:55Z</time>
      </trkpt>
      <trkpt lat="44.44768" lon="1.29766">
        <ele>155</ele>
        <time>2014-03-04T13:48:57Z</time>
      </trkpt>
      <trkpt lat="44.44766" lon="1.29769">
        <ele>154</ele>
        <time>2014-03-04T13:49:00Z</time>
      </trkpt>
      <trkpt lat="44.44759" lon="1.29777">
        <ele>153</ele>
        <time>2014-03-04T13:49:10Z</time>
      </trkpt>
      <trkpt lat="44.44751" lon="1.29795">
        <ele>148</ele>
        <time>2014-03-04T13:49:27Z</time>
      </trkpt>
      <trkpt lat="44.44751" lon="1.29805">
        <ele>147</ele>
        <time>2014-03-04T13:49:37Z</time>
      </trkpt>
      <trkpt lat="44.44755" lon="1.29804">
        <ele>146</ele>
        <time>2014-03-04T13:49:41Z</time>
      </trkpt>
      <trkpt lat="44.44767" lon="1.29804">
        <ele>141</ele>
        <time>2014-03-04T13:49:56Z</time>
      </trkpt>
      <trkpt lat="44.44771" lon="1.29813">
        <ele>138</ele>
        <time>2014-03-04T13:50:10Z</time>
      </trkpt>
      <trkpt lat="44.44772" lon="1.29818">
        <ele>137</ele>
        <time>2014-03-04T13:50:28Z</time>
      </trkpt>
      <trkpt lat="44.44771" lon="1.29828">
        <ele>136</ele>
        <time>2014-03-04T13:50:46Z</time>
      </trkpt>
      <trkpt lat="44.44772" lon="1.2983">
        <ele>136</ele>
        <time>2014-03-04T13:50:48Z</time>
      </trkpt>
      <trkpt lat="44.44785" lon="1.29843">
        <ele>133</ele>
        <time>2014-03-04T13:51:05Z</time>
      </trkpt>
      <trkpt lat="44.44795" lon="1.29851">
        <ele>131</ele>
        <time>2014-03-04T13:51:17Z</time>
      </trkpt>
      <trkpt lat="44.44805" lon="1.29859">
        <ele>131</ele>
        <time>2014-03-04T13:51:32Z</time>
      </trkpt>
      <trkpt lat="44.44811" lon="1.29865">
        <ele>132</ele>
        <time>2014-03-04T13:51:37Z</time>
      </trkpt>
      <trkpt lat="44.44818" lon="1.29871">
        <ele>132</ele>
        <time>2014-03-04T13:51:44Z</time>
      </trkpt>
      <trkpt lat="44.44838" lon="1.29885">
        <ele>128</ele>
        <time>2014-03-04T13:52:03Z</time>
      </trkpt>
      <trkpt lat="44.44848" lon="1.29895">
        <ele>127</ele>
        <time>2014-03-04T13:52:13Z</time>
      </trkpt>
      <trkpt lat="44.44854" lon="1.29903">
        <ele>126</ele>
        <time>2014-03-04T13:52:20Z</time>
      </trkpt>
      <trkpt lat="44.44862" lon="1.29907">
        <ele>126</ele>
        <time>2014-03-04T13:52:27Z</time>
      </trkpt>
      <trkpt lat="44.44872" lon="1.29923">
        <ele>127</ele>
        <time>2014-03-04T13:52:39Z</time>
      </trkpt>
      <trkpt lat="44.44884" lon="1.29938">
        <ele>125</ele>
        <time>2014-03-04T13:52:52Z</time>
      </trkpt>
      <trkpt lat="44.44895" lon="1.29958">
        <ele>125</ele>
        <time>2014-03-04T13:53:07Z</time>
      </trkpt>
      <trkpt lat="44.44904" lon="1.29977">
        <ele>120</ele>
        <time>2014-03-04T13:53:22Z</time>
      </trkpt>
      <trkpt lat="44.44915" lon="1.30006">
        <ele>120</ele>
        <time>2014-03-04T13:53:40Z</time>
      </trkpt>
      <trkpt lat="44.44916" lon="1.30008">
        <ele>120</ele>
        <time>2014-03-04T13:53:41Z</time>
      </trkpt>
      <trkpt lat="44.44921" lon="1.30018">
        <ele>120</ele>
        <time>2014-03-04T13:53:49Z</time>
      </trkpt>
      <trkpt lat="44.44921" lon="1.30023">
        <ele>121</ele>
        <time>2014-03-04T13:53:53Z</time>
      </trkpt>
      <trkpt lat="44.44924" lon="1.30034">
        <ele>120</ele>
        <time>2014-03-04T13:54:00Z</time>
      </trkpt>
      <trkpt lat="44.44926" lon="1.30041">
        <ele>119</ele>
        <time>2014-03-04T13:54:05Z</time>
      </trkpt>
      <trkpt lat="44.44936" lon="1.3006">
        <ele>118</ele>
        <time>2014-03-04T13:54:21Z</time>
      </trkpt>
      <trkpt lat="44.44935" lon="1.30061">
        <ele>118</ele>
        <time>2014-03-04T13:54:22Z</time>
      </trkpt>
      <trkpt lat="44.44933" lon="1.30065">
        <ele>116</ele>
        <time>2014-03-04T13:54:26Z</time>
      </trkpt>
      <trkpt lat="44.44932" lon="1.30069">
        <ele>115</ele>
        <time>2014-03-04T13:54:29Z</time>
      </trkpt>
      <trkpt lat="44.44926" lon="1.30074">
        <ele>113</ele>
        <time>2014-03-04T13:54:36Z</time>
      </trkpt>
      <trkpt lat="44.4492" lon="1.3008">
        <ele>105</ele>
        <time>2014-03-04T13:54:51Z</time>
      </trkpt>
      <trkpt lat="44.44916" lon="1.30082">
        <ele>105</ele>
        <time>2014-03-04T13:54:55Z</time>
      </trkpt>
      <trkpt lat="44.44905" lon="1.30093">
        <ele>102</ele>
        <time>2014-03-04T13:55:08Z</time>
      </trkpt>
      <trkpt lat="44.44892" lon="1.30102">
        <ele>98</ele>
        <time>2014-03-04T13:55:20Z</time>
      </trkpt>
      <trkpt lat="44.44882" lon="1.30113">
        <ele>95</ele>
        <time>2014-03-04T13:55:31Z</time>
      </trkpt>
      <trkpt lat="44.44881" lon="1.30115">
        <ele>94</ele>
        <time>2014-03-04T13:55:33Z</time>
      </trkpt>
      <trkpt lat="44.44875" lon="1.30121">
        <ele>92</ele>
        <time>2014-03-04T13:55:38Z</time>
      </trkpt>
      <trkpt lat="44.44872" lon="1.30122">
        <ele>91</ele>
        <time>2014-03-04T13:55:41Z</time>
      </trkpt>
      <trkpt lat="44.44869" lon="1.30123">
        <ele>91</ele>
        <time>2014-03-04T13:55:43Z</time>
      </trkpt>
      <trkpt lat="44.44862" lon="1.30132">
        <ele>89</ele>
        <time>2014-03-04T13:55:51Z</time>
      </trkpt>
      <trkpt lat="44.44856" lon="1.30141">
        <ele>85</ele>
        <time>2014-03-04T13:56:02Z</time>
      </trkpt>
      <trkpt lat="44.44847" lon="1.30155">
        <ele>85</ele>
        <time>2014-03-04T13:56:16Z</time>
      </trkpt>
      <trkpt lat="44.44838" lon="1.3017">
        <ele>83</ele>
        <time>2014-03-04T13:56:29Z</time>
      </trkpt>
      <trkpt lat="44.44833" lon="1.30176">
        <ele>81</ele>
        <time>2014-03-04T13:56:35Z</time>
      </trkpt>
      <trkpt lat="44.44821" lon="1.30198">
        <ele>81</ele>
        <time>2014-03-04T13:56:50Z</time>
      </trkpt>
      <trkpt lat="44.44818" lon="1.302">
        <ele>79</ele>
        <time>2014-03-04T13:56:55Z</time>
      </trkpt>
      <trkpt lat="44.4481" lon="1.30213">
        <ele>76</ele>
        <time>2014-03-04T13:57:08Z</time>
      </trkpt>
      <trkpt lat="44.44809" lon="1.30217">
        <ele>76</ele>
        <time>2014-03-04T13:57:13Z</time>
      </trkpt>
      <trkpt lat="44.44808" lon="1.30218">
        <ele>77</ele>
        <time>2014-03-04T13:57:15Z</time>
      </trkpt>
      <trkpt lat="44.44796" lon="1.30242">
        <ele>80</ele>
        <time>2014-03-04T13:57:29Z</time>
      </trkpt>
      <trkpt lat="44.44794" lon="1.30251">
        <ele>82</ele>
        <time>2014-03-04T13:57:34Z</time>
      </trkpt>
      <trkpt lat="44.44791" lon="1.30255">
        <ele>84</ele>
        <time>2014-03-04T13:57:37Z</time>
      </trkpt>
      <trkpt lat="44.44782" lon="1.30269">
        <ele>90</ele>
        <time>2014-03-04T13:57:50Z</time>
      </trkpt>
      <trkpt lat="44.44776" lon="1.30277">
        <ele>90</ele>
        <time>2014-03-04T13:57:57Z</time>
      </trkpt>
      <trkpt lat="44.44765" lon="1.30295">
        <ele>93</ele>
        <time>2014-03-04T13:58:09Z</time>
      </trkpt>
      <trkpt lat="44.44764" lon="1.30297">
        <ele>94</ele>
        <time>2014-03-04T13:58:11Z</time>
      </trkpt>
      <trkpt lat="44.44753" lon="1.30315">
        <ele>94</ele>
        <time>2014-03-04T13:58:24Z</time>
      </trkpt>
      <trkpt lat="44.44752" lon="1.30318">
        <ele>94</ele>
        <time>2014-03-04T13:58:26Z</time>
      </trkpt>
      <trkpt lat="44.44749" lon="1.30328">
        <ele>93</ele>
        <time>2014-03-04T13:58:33Z</time>
      </trkpt>
      <trkpt lat="44.44746" lon="1.30338">
        <ele>92</ele>
        <time>2014-03-04T13:58:41Z</time>
      </trkpt>
      <trkpt lat="44.44739" lon="1.3035">
        <ele>91</ele>
        <time>2014-03-04T13:58:51Z</time>
      </trkpt>
      <trkpt lat="44.44734" lon="1.30358">
        <ele>91</ele>
        <time>2014-03-04T13:58:57Z</time>
      </trkpt>
      <trkpt lat="44.44731" lon="1.30363">
        <ele>91</ele>
        <time>2014-03-04T13:59:01Z</time>
      </trkpt>
      <trkpt lat="44.44724" lon="1.30379">
        <ele>93</ele>
        <time>2014-03-04T13:59:12Z</time>
      </trkpt>
      <trkpt lat="44.44721" lon="1.30387">
        <ele>92</ele>
        <time>2014-03-04T13:59:18Z</time>
      </trkpt>
      <trkpt lat="44.44718" lon="1.30393">
        <ele>92</ele>
        <time>2014-03-04T13:59:22Z</time>
      </trkpt>
      <trkpt lat="44.44717" lon="1.30401">
        <ele>93</ele>
        <time>2014-03-04T13:59:26Z</time>
      </trkpt>
      <trkpt lat="44.44713" lon="1.30414">
        <ele>94</ele>
        <time>2014-03-04T13:59:33Z</time>
      </trkpt>
      <trkpt lat="44.44711" lon="1.30422">
        <ele>94</ele>
        <time>2014-03-04T13:59:38Z</time>
      </trkpt>
      <trkpt lat="44.447" lon="1.30443">
        <ele>97</ele>
        <time>2014-03-04T13:59:53Z</time>
      </trkpt>
      <trkpt lat="44.44696" lon="1.30456">
        <ele>99</ele>
        <time>2014-03-04T14:00:04Z</time>
      </trkpt>
      <trkpt lat="44.44695" lon="1.30461">
        <ele>99</ele>
        <time>2014-03-04T14:00:08Z</time>
      </trkpt>
      <trkpt lat="44.44694" lon="1.30465">
        <ele>100</ele>
        <time>2014-03-04T14:00:10Z</time>
      </trkpt>
      <trkpt lat="44.44692" lon="1.30468">
        <ele>100</ele>
        <time>2014-03-04T14:00:13Z</time>
      </trkpt>
      <trkpt lat="44.44691" lon="1.30471">
        <ele>99</ele>
        <time>2014-03-04T14:00:15Z</time>
      </trkpt>
      <trkpt lat="44.44684" lon="1.30496">
        <ele>101</ele>
        <time>2014-03-04T14:00:30Z</time>
      </trkpt>
      <trkpt lat="44.44679" lon="1.30514">
        <ele>102</ele>
        <time>2014-03-04T14:00:40Z</time>
      </trkpt>
      <trkpt lat="44.44676" lon="1.3052">
        <ele>102</ele>
        <time>2014-03-04T14:00:44Z</time>
      </trkpt>
      <trkpt lat="44.44676" lon="1.30524">
        <ele>102</ele>
        <time>2014-03-04T14:00:46Z</time>
      </trkpt>
      <trkpt lat="44.44672" lon="1.3053">
        <ele>102</ele>
        <time>2014-03-04T14:00:51Z</time>
      </trkpt>
      <trkpt lat="44.44664" lon="1.30553">
        <ele>99</ele>
        <time>2014-03-04T14:01:06Z</time>
      </trkpt>
      <trkpt lat="44.44659" lon="1.30571">
        <ele>103</ele>
        <time>2014-03-04T14:01:18Z</time>
      </trkpt>
      <trkpt lat="44.44656" lon="1.30581">
        <ele>105</ele>
        <time>2014-03-04T14:01:28Z</time>
      </trkpt>
      <trkpt lat="44.44647" lon="1.30587">
        <ele>108</ele>
        <time>2014-03-04T14:01:41Z</time>
      </trkpt>
      <trkpt lat="44.44638" lon="1.30592">
        <ele>107</ele>
        <time>2014-03-04T14:01:52Z</time>
      </trkpt>
      <trkpt lat="44.44632" lon="1.30596">
        <ele>106</ele>
        <time>2014-03-04T14:01:59Z</time>
      </trkpt>
      <trkpt lat="44.44623" lon="1.30599">
        <ele>104</ele>
        <time>2014-03-04T14:02:07Z</time>
      </trkpt>
      <trkpt lat="44.44612" lon="1.30601">
        <ele>99</ele>
        <time>2014-03-04T14:02:19Z</time>
      </trkpt>
      <trkpt lat="44.44606" lon="1.30604">
        <ele>93</ele>
        <time>2014-03-04T14:02:28Z</time>
      </trkpt>
      <trkpt lat="44.44595" lon="1.30611">
        <ele>88</ele>
        <time>2014-03-04T14:02:40Z</time>
      </trkpt>
      <trkpt lat="44.44586" lon="1.30615">
        <ele>87</ele>
        <time>2014-03-04T14:02:48Z</time>
      </trkpt>
      <trkpt lat="44.4458" lon="1.3062">
        <ele>86</ele>
        <time>2014-03-04T14:02:54Z</time>
      </trkpt>
      <trkpt lat="44.44566" lon="1.30634">
        <ele>91</ele>
        <time>2014-03-04T14:03:08Z</time>
      </trkpt>
      <trkpt lat="44.4455" lon="1.30648">
        <ele>96</ele>
        <time>2014-03-04T14:03:22Z</time>
      </trkpt>
      <trkpt lat="44.44546" lon="1.30653">
        <ele>97</ele>
        <time>2014-03-04T14:03:26Z</time>
      </trkpt>
      <trkpt lat="44.44542" lon="1.30657">
        <ele>99</ele>
        <time>2014-03-04T14:03:30Z</time>
      </trkpt>
      <trkpt lat="44.44536" lon="1.30664">
        <ele>101</ele>
        <time>2014-03-04T14:03:34Z</time>
      </trkpt>
      <trkpt lat="44.44522" lon="1.30684">
        <ele>106</ele>
        <time>2014-03-04T14:03:49Z</time>
      </trkpt>
      <trkpt lat="44.44519" lon="1.30687">
        <ele>108</ele>
        <time>2014-03-04T14:03:52Z</time>
      </trkpt>
      <trkpt lat="44.44514" lon="1.30693">
        <ele>108</ele>
        <time>2014-03-04T14:03:58Z</time>
      </trkpt>
      <trkpt lat="44.44509" lon="1.30716">
        <ele>108</ele>
        <time>2014-03-04T14:04:15Z</time>
      </trkpt>
      <trkpt lat="44.44514" lon="1.30737">
        <ele>112</ele>
        <time>2014-03-04T14:04:31Z</time>
      </trkpt>
      <trkpt lat="44.44514" lon="1.30747">
        <ele>111</ele>
        <time>2014-03-04T14:04:46Z</time>
      </trkpt>
      <trkpt lat="44.44508" lon="1.30754">
        <ele>108</ele>
        <time>2014-03-04T14:04:57Z</time>
      </trkpt>
      <trkpt lat="44.44503" lon="1.30758">
        <ele>105</ele>
        <time>2014-03-04T14:05:06Z</time>
      </trkpt>
      <trkpt lat="44.44501" lon="1.30761">
        <ele>105</ele>
        <time>2014-03-04T14:05:09Z</time>
      </trkpt>
      <trkpt lat="44.44488" lon="1.30771">
        <ele>102</ele>
        <time>2014-03-04T14:05:23Z</time>
      </trkpt>
      <trkpt lat="44.44482" lon="1.30777">
        <ele>98</ele>
        <time>2014-03-04T14:05:31Z</time>
      </trkpt>
      <trkpt lat="44.44472" lon="1.30792">
        <ele>90</ele>
        <time>2014-03-04T14:05:46Z</time>
      </trkpt>
      <trkpt lat="44.44471" lon="1.30795">
        <ele>90</ele>
        <time>2014-03-04T14:05:48Z</time>
      </trkpt>
      <trkpt lat="44.44466" lon="1.30804">
        <ele>91</ele>
        <time>2014-03-04T14:05:55Z</time>
      </trkpt>
      <trkpt lat="44.44459" lon="1.30813">
        <ele>98</ele>
        <time>2014-03-04T14:06:05Z</time>
      </trkpt>
      <trkpt lat="44.44458" lon="1.30816">
        <ele>99</ele>
        <time>2014-03-04T14:06:07Z</time>
      </trkpt>
      <trkpt lat="44.44456" lon="1.30832">
        <ele>107</ele>
        <time>2014-03-04T14:06:17Z</time>
      </trkpt>
      <trkpt lat="44.44453" lon="1.30856">
        <ele>120</ele>
        <time>2014-03-04T14:06:31Z</time>
      </trkpt>
      <trkpt lat="44.4445" lon="1.30869">
        <ele>124</ele>
        <time>2014-03-04T14:06:42Z</time>
      </trkpt>
      <trkpt lat="44.44443" lon="1.30877">
        <ele>127</ele>
        <time>2014-03-04T14:06:51Z</time>
      </trkpt>
      <trkpt lat="44.44442" lon="1.30883">
        <ele>128</ele>
        <time>2014-03-04T14:06:55Z</time>
      </trkpt>
      <trkpt lat="44.44436" lon="1.30902">
        <ele>131</ele>
        <time>2014-03-04T14:07:10Z</time>
      </trkpt>
      <trkpt lat="44.44435" lon="1.30915">
        <ele>133</ele>
        <time>2014-03-04T14:07:19Z</time>
      </trkpt>
      <trkpt lat="44.44434" lon="1.30936">
        <ele>134</ele>
        <time>2014-03-04T14:07:34Z</time>
      </trkpt>
      <trkpt lat="44.44433" lon="1.30939">
        <ele>134</ele>
        <time>2014-03-04T14:07:37Z</time>
      </trkpt>
      <trkpt lat="44.44433" lon="1.30957">
        <ele>133</ele>
        <time>2014-03-04T14:07:50Z</time>
      </trkpt>
      <trkpt lat="44.44433" lon="1.30974">
        <ele>132</ele>
        <time>2014-03-04T14:08:01Z</time>
      </trkpt>
      <trkpt lat="44.44433" lon="1.30992">
        <ele>129</ele>
        <time>2014-03-04T14:08:13Z</time>
      </trkpt>
      <trkpt lat="44.44433" lon="1.30996">
        <ele>129</ele>
        <time>2014-03-04T14:08:16Z</time>
      </trkpt>
      <trkpt lat="44.44433" lon="1.31013">
        <ele>128</ele>
        <time>2014-03-04T14:08:27Z</time>
      </trkpt>
      <trkpt lat="44.44432" lon="1.31027">
        <ele>126</ele>
        <time>2014-03-04T14:08:35Z</time>
      </trkpt>
      <trkpt lat="44.44433" lon="1.31031">
        <ele>125</ele>
        <time>2014-03-04T14:08:38Z</time>
      </trkpt>
      <trkpt lat="44.44432" lon="1.31039">
        <ele>123</ele>
        <time>2014-03-04T14:08:44Z</time>
      </trkpt>
      <trkpt lat="44.44432" lon="1.31048">
        <ele>121</ele>
        <time>2014-03-04T14:08:50Z</time>
      </trkpt>
      <trkpt lat="44.44433" lon="1.31064">
        <ele>116</ele>
        <time>2014-03-04T14:09:02Z</time>
      </trkpt>
      <trkpt lat="44.44433" lon="1.31068">
        <ele>114</ele>
        <time>2014-03-04T14:09:18Z</time>
      </trkpt>
      <trkpt lat="44.44433" lon="1.31077">
        <ele>115</ele>
        <time>2014-03-04T14:09:33Z</time>
      </trkpt>
      <trkpt lat="44.44434" lon="1.3109">
        <ele>115</ele>
        <time>2014-03-04T14:09:43Z</time>
      </trkpt>
      <trkpt lat="44.44432" lon="1.31093">
        <ele>115</ele>
        <time>2014-03-04T14:09:47Z</time>
      </trkpt>
      <trkpt lat="44.44429" lon="1.31102">
        <ele>115</ele>
        <time>2014-03-04T14:09:53Z</time>
      </trkpt>
      <trkpt lat="44.44427" lon="1.31105">
        <ele>115</ele>
        <time>2014-03-04T14:09:56Z</time>
      </trkpt>
      <trkpt lat="44.44424" lon="1.31114">
        <ele>115</ele>
        <time>2014-03-04T14:10:02Z</time>
      </trkpt>
      <trkpt lat="44.44419" lon="1.31132">
        <ele>111</ele>
        <time>2014-03-04T14:10:15Z</time>
      </trkpt>
      <trkpt lat="44.44416" lon="1.31147">
        <ele>108</ele>
        <time>2014-03-04T14:10:26Z</time>
      </trkpt>
      <trkpt lat="44.44412" lon="1.31168">
        <ele>106</ele>
        <time>2014-03-04T14:10:39Z</time>
      </trkpt>
      <trkpt lat="44.44409" lon="1.31174">
        <ele>104</ele>
        <time>2014-03-04T14:10:44Z</time>
      </trkpt>
      <trkpt lat="44.44403" lon="1.31191">
        <ele>99</ele>
        <time>2014-03-04T14:10:57Z</time>
      </trkpt>
      <trkpt lat="44.444" lon="1.31198">
        <ele>96</ele>
        <time>2014-03-04T14:11:02Z</time>
      </trkpt>
      <trkpt lat="44.44394" lon="1.31215">
        <ele>87</ele>
        <time>2014-03-04T14:11:15Z</time>
      </trkpt>
      <trkpt lat="44.44392" lon="1.31222">
        <ele>85</ele>
        <time>2014-03-04T14:11:21Z</time>
      </trkpt>
      <trkpt lat="44.44388" lon="1.31238">
        <ele>82</ele>
        <time>2014-03-04T14:11:33Z</time>
      </trkpt>
      <trkpt lat="44.44386" lon="1.31246">
        <ele>83</ele>
        <time>2014-03-04T14:11:39Z</time>
      </trkpt>
      <trkpt lat="44.44381" lon="1.31259">
        <ele>83</ele>
        <time>2014-03-04T14:11:49Z</time>
      </trkpt>
      <trkpt lat="44.44379" lon="1.3127">
        <ele>83</ele>
        <time>2014-03-04T14:11:56Z</time>
      </trkpt>
      <trkpt lat="44.44379" lon="1.31273">
        <ele>83</ele>
        <time>2014-03-04T14:11:58Z</time>
      </trkpt>
      <trkpt lat="44.44373" lon="1.31289">
        <ele>85</ele>
        <time>2014-03-04T14:12:10Z</time>
      </trkpt>
      <trkpt lat="44.44373" lon="1.31294">
        <ele>85</ele>
        <time>2014-03-04T14:12:14Z</time>
      </trkpt>
      <trkpt lat="44.4437" lon="1.31316">
        <ele>88</ele>
        <time>2014-03-04T14:12:29Z</time>
      </trkpt>
      <trkpt lat="44.44369" lon="1.31334">
        <ele>86</ele>
        <time>2014-03-04T14:12:42Z</time>
      </trkpt>
      <trkpt lat="44.44371" lon="1.31353">
        <ele>84</ele>
        <time>2014-03-04T14:12:55Z</time>
      </trkpt>
      <trkpt lat="44.44375" lon="1.31371">
        <ele>85</ele>
        <time>2014-03-04T14:13:09Z</time>
      </trkpt>
      <trkpt lat="44.44376" lon="1.31385">
        <ele>86</ele>
        <time>2014-03-04T14:13:20Z</time>
      </trkpt>
      <trkpt lat="44.44377" lon="1.31392">
        <ele>87</ele>
        <time>2014-03-04T14:13:25Z</time>
      </trkpt>
      <trkpt lat="44.44373" lon="1.31407">
        <ele>93</ele>
        <time>2014-03-04T14:13:35Z</time>
      </trkpt>
      <trkpt lat="44.44364" lon="1.31422">
        <ele>100</ele>
        <time>2014-03-04T14:13:49Z</time>
      </trkpt>
      <trkpt lat="44.44357" lon="1.31437">
        <ele>105</ele>
        <time>2014-03-04T14:14:00Z</time>
      </trkpt>
      <trkpt lat="44.44356" lon="1.3144">
        <ele>107</ele>
        <time>2014-03-04T14:14:02Z</time>
      </trkpt>
      <trkpt lat="44.44351" lon="1.31449">
        <ele>109</ele>
        <time>2014-03-04T14:14:09Z</time>
      </trkpt>
      <trkpt lat="44.4435" lon="1.31452">
        <ele>110</ele>
        <time>2014-03-04T14:14:11Z</time>
      </trkpt>
      <trkpt lat="44.44348" lon="1.31457">
        <ele>110</ele>
        <time>2014-03-04T14:14:15Z</time>
      </trkpt>
      <trkpt lat="44.44342" lon="1.31468">
        <ele>110</ele>
        <time>2014-03-04T14:14:24Z</time>
      </trkpt>
      <trkpt lat="44.44335" lon="1.31481">
        <ele>111</ele>
        <time>2014-03-04T14:14:36Z</time>
      </trkpt>
      <trkpt lat="44.44329" lon="1.31493">
        <ele>113</ele>
        <time>2014-03-04T14:14:48Z</time>
      </trkpt>
      <trkpt lat="44.4432" lon="1.31503">
        <ele>115</ele>
        <time>2014-03-04T14:15:01Z</time>
      </trkpt>
      <trkpt lat="44.4431" lon="1.3151">
        <ele>118</ele>
        <time>2014-03-04T14:15:12Z</time>
      </trkpt>
      <trkpt lat="44.44303" lon="1.31514">
        <ele>122</ele>
        <time>2014-03-04T14:15:23Z</time>
      </trkpt>
      <trkpt lat="44.44299" lon="1.31515">
        <ele>124</ele>
        <time>2014-03-04T14:15:30Z</time>
      </trkpt>
      <trkpt lat="44.44286" lon="1.3152">
        <ele>128</ele>
        <time>2014-03-04T14:15:43Z</time>
      </trkpt>
      <trkpt lat="44.44275" lon="1.31523">
        <ele>132</ele>
        <time>2014-03-04T14:15:54Z</time>
      </trkpt>
      <trkpt lat="44.44261" lon="1.31525">
        <ele>138</ele>
        <time>2014-03-04T14:16:07Z</time>
      </trkpt>
      <trkpt lat="44.4426" lon="1.31525">
        <ele>138</ele>
        <time>2014-03-04T14:16:08Z</time>
      </trkpt>
      <trkpt lat="44.4425" lon="1.31529">
        <ele>141</ele>
        <time>2014-03-04T14:16:19Z</time>
      </trkpt>
      <trkpt lat="44.44248" lon="1.3153">
        <ele>142</ele>
        <time>2014-03-04T14:16:22Z</time>
      </trkpt>
      <trkpt lat="44.44239" lon="1.31531">
        <ele>150</ele>
        <time>2014-03-04T14:16:34Z</time>
      </trkpt>
      <trkpt lat="44.44238" lon="1.31531">
        <ele>151</ele>
        <time>2014-03-04T14:17:02Z</time>
      </trkpt>
      <trkpt lat="44.4423" lon="1.31534">
        <ele>153</ele>
        <time>2014-03-04T14:17:09Z</time>
      </trkpt>
      <trkpt lat="44.44218" lon="1.31544">
        <ele>157</ele>
        <time>2014-03-04T14:17:22Z</time>
      </trkpt>
      <trkpt lat="44.44214" lon="1.31547">
        <ele>157</ele>
        <time>2014-03-04T14:17:26Z</time>
      </trkpt>
      <trkpt lat="44.442" lon="1.31562">
        <ele>158</ele>
        <time>2014-03-04T14:17:41Z</time>
      </trkpt>
      <trkpt lat="44.44183" lon="1.31579">
        <ele>153</ele>
        <time>2014-03-04T14:17:58Z</time>
      </trkpt>
      <trkpt lat="44.44175" lon="1.31587">
        <ele>151</ele>
        <time>2014-03-04T14:18:07Z</time>
      </trkpt>
      <trkpt lat="44.44168" lon="1.31595">
        <ele>148</ele>
        <time>2014-03-04T14:18:15Z</time>
      </trkpt>
      <trkpt lat="44.44154" lon="1.3161">
        <ele>141</ele>
        <time>2014-03-04T14:18:30Z</time>
      </trkpt>
      <trkpt lat="44.44149" lon="1.31619">
        <ele>133</ele>
        <time>2014-03-04T14:18:41Z</time>
      </trkpt>
      <trkpt lat="44.44145" lon="1.31627">
        <ele>128</ele>
        <time>2014-03-04T14:18:49Z</time>
      </trkpt>
      <trkpt lat="44.44141" lon="1.31639">
        <ele>128</ele>
        <time>2014-03-04T14:18:58Z</time>
      </trkpt>
      <trkpt lat="44.44139" lon="1.31647">
        <ele>128</ele>
        <time>2014-03-04T14:19:04Z</time>
      </trkpt>
      <trkpt lat="44.44137" lon="1.31651">
        <ele>128</ele>
        <time>2014-03-04T14:19:08Z</time>
      </trkpt>
      <trkpt lat="44.44133" lon="1.3166">
        <ele>127</ele>
        <time>2014-03-04T14:19:14Z</time>
      </trkpt>
      <trkpt lat="44.4413" lon="1.31673">
        <ele>126</ele>
        <time>2014-03-04T14:19:26Z</time>
      </trkpt>
      <trkpt lat="44.44127" lon="1.31683">
        <ele>126</ele>
        <time>2014-03-04T14:19:36Z</time>
      </trkpt>
      <trkpt lat="44.4412" lon="1.31691">
        <ele>124</ele>
        <time>2014-03-04T14:19:47Z</time>
      </trkpt>
      <trkpt lat="44.44112" lon="1.31705">
        <ele>122</ele>
        <time>2014-03-04T14:19:59Z</time>
      </trkpt>
      <trkpt lat="44.44109" lon="1.31707">
        <ele>121</ele>
        <time>2014-03-04T14:20:02Z</time>
      </trkpt>
      <trkpt lat="44.44099" lon="1.31724">
        <ele>112</ele>
        <time>2014-03-04T14:20:16Z</time>
      </trkpt>
      <trkpt lat="44.44091" lon="1.3174">
        <ele>99</ele>
        <time>2014-03-04T14:20:30Z</time>
      </trkpt>
      <trkpt lat="44.44086" lon="1.31745">
        <ele>94</ele>
        <time>2014-03-04T14:20:35Z</time>
      </trkpt>
      <trkpt lat="44.44076" lon="1.3176">
        <ele>88</ele>
        <time>2014-03-04T14:20:49Z</time>
      </trkpt>
      <trkpt lat="44.44072" lon="1.31765">
        <ele>84</ele>
        <time>2014-03-04T14:20:55Z</time>
      </trkpt>
      <trkpt lat="44.44066" lon="1.31772">
        <ele>81</ele>
        <time>2014-03-04T14:21:02Z</time>
      </trkpt>
      <trkpt lat="44.44054" lon="1.31788">
        <ele>83</ele>
        <time>2014-03-04T14:21:18Z</time>
      </trkpt>
      <trkpt lat="44.44045" lon="1.318">
        <ele>91</ele>
        <time>2014-03-04T14:21:33Z</time>
      </trkpt>
      <trkpt lat="44.44034" lon="1.31812">
        <ele>88</ele>
        <time>2014-03-04T14:21:46Z</time>
      </trkpt>
      <trkpt lat="44.44026" lon="1.3182">
        <ele>85</ele>
        <time>2014-03-04T14:21:58Z</time>
      </trkpt>
      <trkpt lat="44.44023" lon="1.31823">
        <ele>83</ele>
        <time>2014-03-04T14:22:02Z</time>
      </trkpt>
      <trkpt lat="44.44008" lon="1.31841">
        <ele>75</ele>
        <time>2014-03-04T14:22:19Z</time>
      </trkpt>
      <trkpt lat="44.44001" lon="1.31848">
        <ele>71</ele>
        <time>2014-03-04T14:22:26Z</time>
      </trkpt>
      <trkpt lat="44.43993" lon="1.31859">
        <ele>65</ele>
        <time>2014-03-04T14:22:37Z</time>
      </trkpt>
      <trkpt lat="44.43988" lon="1.31868">
        <ele>61</ele>
        <time>2014-03-04T14:22:47Z</time>
      </trkpt>
      <trkpt lat="44.43984" lon="1.31876">
        <ele>65</ele>
        <time>2014-03-04T14:22:54Z</time>
      </trkpt>
      <trkpt lat="44.43978" lon="1.31892">
        <ele>68</ele>
        <time>2014-03-04T14:23:06Z</time>
      </trkpt>
      <trkpt lat="44.43973" lon="1.31909">
        <ele>70</ele>
        <time>2014-03-04T14:23:20Z</time>
      </trkpt>
      <trkpt lat="44.43969" lon="1.31923">
        <ele>73</ele>
        <time>2014-03-04T14:23:30Z</time>
      </trkpt>
      <trkpt lat="44.43964" lon="1.3194">
        <ele>75</ele>
        <time>2014-03-04T14:23:43Z</time>
      </trkpt>
      <trkpt lat="44.4396" lon="1.31961">
        <ele>73</ele>
        <time>2014-03-04T14:23:58Z</time>
      </trkpt>
      <trkpt lat="44.4396" lon="1.31975">
        <ele>77</ele>
        <time>2014-03-04T14:24:12Z</time>
      </trkpt>
      <trkpt lat="44.43959" lon="1.31982">
        <ele>78</ele>
        <time>2014-03-04T14:24:16Z</time>
      </trkpt>
      <trkpt lat="44.43959" lon="1.31998">
        <ele>81</ele>
        <time>2014-03-04T14:24:27Z</time>
      </trkpt>
      <trkpt lat="44.43959" lon="1.32006">
        <ele>82</ele>
        <time>2014-03-04T14:24:32Z</time>
      </trkpt>
      <trkpt lat="44.43959" lon="1.32012">
        <ele>82</ele>
        <time>2014-03-04T14:24:36Z</time>
      </trkpt>
      <trkpt lat="44.43959" lon="1.32031">
        <ele>82</ele>
        <time>2014-03-04T14:24:49Z</time>
      </trkpt>
      <trkpt lat="44.43957" lon="1.3205">
        <ele>78</ele>
        <time>2014-03-04T14:25:02Z</time>
      </trkpt>
      <trkpt lat="44.43957" lon="1.32066">
        <ele>73</ele>
        <time>2014-03-04T14:25:14Z</time>
      </trkpt>
      <trkpt lat="44.43958" lon="1.32083">
        <ele>72</ele>
        <time>2014-03-04T14:25:27Z</time>
      </trkpt>
      <trkpt lat="44.43957" lon="1.32102">
        <ele>69</ele>
        <time>2014-03-04T14:25:40Z</time>
      </trkpt>
      <trkpt lat="44.43955" lon="1.32125">
        <ele>77</ele>
        <time>2014-03-04T14:25:54Z</time>
      </trkpt>
      <trkpt lat="44.43954" lon="1.32132">
        <ele>78</ele>
        <time>2014-03-04T14:25:59Z</time>
      </trkpt>
      <trkpt lat="44.4395" lon="1.32141">
        <ele>81</ele>
        <time>2014-03-04T14:26:06Z</time>
      </trkpt>
      <trkpt lat="44.43949" lon="1.32148">
        <ele>82</ele>
        <time>2014-03-04T14:26:10Z</time>
      </trkpt>
      <trkpt lat="44.43946" lon="1.32172">
        <ele>80</ele>
        <time>2014-03-04T14:26:27Z</time>
      </trkpt>
      <trkpt lat="44.43943" lon="1.32193">
        <ele>81</ele>
        <time>2014-03-04T14:26:42Z</time>
      </trkpt>
      <trkpt lat="44.43941" lon="1.32207">
        <ele>83</ele>
        <time>2014-03-04T14:26:54Z</time>
      </trkpt>
      <trkpt lat="44.43938" lon="1.32221">
        <ele>86</ele>
        <time>2014-03-04T14:27:04Z</time>
      </trkpt>
      <trkpt lat="44.43934" lon="1.32237">
        <ele>92</ele>
        <time>2014-03-04T14:27:17Z</time>
      </trkpt>
      <trkpt lat="44.43935" lon="1.32251">
        <ele>99</ele>
        <time>2014-03-04T14:27:29Z</time>
      </trkpt>
      <trkpt lat="44.43937" lon="1.32254">
        <ele>101</ele>
        <time>2014-03-04T14:27:32Z</time>
      </trkpt>
      <trkpt lat="44.43943" lon="1.32249">
        <ele>110</ele>
        <time>2014-03-04T14:27:40Z</time>
      </trkpt>
      <trkpt lat="44.43946" lon="1.32244">
        <ele>120</ele>
        <time>2014-03-04T14:27:45Z</time>
      </trkpt>
      <trkpt lat="44.43953" lon="1.32234">
        <ele>146</ele>
        <time>2014-03-04T14:27:59Z</time>
      </trkpt>
      <trkpt lat="44.43955" lon="1.32232">
        <ele>151</ele>
        <time>2014-03-04T14:28:14Z</time>
      </trkpt>
      <trkpt lat="44.43956" lon="1.32231">
        <ele>153</ele>
        <time>2014-03-04T14:28:16Z</time>
      </trkpt>
      <trkpt lat="44.43956" lon="1.32234">
        <ele>164</ele>
        <time>2014-03-04T14:28:19Z</time>
      </trkpt>
      <trkpt lat="44.43957" lon="1.32233">
        <ele>171</ele>
        <time>2014-03-04T14:28:22Z</time>
      </trkpt>
      <trkpt lat="44.43961" lon="1.32227">
        <ele>183</ele>
        <time>2014-03-04T14:28:27Z</time>
      </trkpt>
      <trkpt lat="44.43972" lon="1.32206">
        <ele>205</ele>
        <time>2014-03-04T14:28:42Z</time>
      </trkpt>
      <trkpt lat="44.43976" lon="1.32197">
        <ele>216</ele>
        <time>2014-03-04T14:28:56Z</time>
      </trkpt>
      <trkpt lat="44.43978" lon="1.32195">
        <ele>216</ele>
        <time>2014-03-04T14:29:01Z</time>
      </trkpt>
      <trkpt lat="44.43988" lon="1.32179">
        <ele>226</ele>
        <time>2014-03-04T14:29:14Z</time>
      </trkpt>
      <trkpt lat="44.4399" lon="1.32174">
        <ele>228</ele>
        <time>2014-03-04T14:29:18Z</time>
      </trkpt>
      <trkpt lat="44.43995" lon="1.32168">
        <ele>231</ele>
        <time>2014-03-04T14:29:24Z</time>
      </trkpt>
      <trkpt lat="44.44001" lon="1.32154">
        <ele>235</ele>
        <time>2014-03-04T14:29:36Z</time>
      </trkpt>
      <trkpt lat="44.44003" lon="1.32148">
        <ele>237</ele>
        <time>2014-03-04T14:29:41Z</time>
      </trkpt>
      <trkpt lat="44.44008" lon="1.32135">
        <ele>240</ele>
        <time>2014-03-04T14:29:56Z</time>
      </trkpt>
      <trkpt lat="44.4401" lon="1.32126">
        <ele>243</ele>
        <time>2014-03-04T14:30:04Z</time>
      </trkpt>
      <trkpt lat="44.44015" lon="1.32108">
        <ele>247</ele>
        <time>2014-03-04T14:30:19Z</time>
      </trkpt>
      <trkpt lat="44.44019" lon="1.32096">
        <ele>249</ele>
        <time>2014-03-04T14:30:30Z</time>
      </trkpt>
      <trkpt lat="44.44022" lon="1.32082">
        <ele>253</ele>
        <time>2014-03-04T14:30:44Z</time>
      </trkpt>
      <trkpt lat="44.44025" lon="1.32076">
        <ele>254</ele>
        <time>2014-03-04T14:30:58Z</time>
      </trkpt>
      <trkpt lat="44.44029" lon="1.32057">
        <ele>257</ele>
        <time>2014-03-04T14:31:13Z</time>
      </trkpt>
      <trkpt lat="44.44031" lon="1.32047">
        <ele>258</ele>
        <time>2014-03-04T14:31:21Z</time>
      </trkpt>
      <trkpt lat="44.44035" lon="1.32034">
        <ele>260</ele>
        <time>2014-03-04T14:31:31Z</time>
      </trkpt>
      <trkpt lat="44.44034" lon="1.32032">
        <ele>260</ele>
        <time>2014-03-04T14:31:33Z</time>
      </trkpt>
      <trkpt lat="44.44044" lon="1.32015">
        <ele>261</ele>
        <time>2014-03-04T14:31:50Z</time>
      </trkpt>
      <trkpt lat="44.44046" lon="1.32012">
        <ele>262</ele>
        <time>2014-03-04T14:31:54Z</time>
      </trkpt>
      <trkpt lat="44.44048" lon="1.32009">
        <ele>263</ele>
        <time>2014-03-04T14:31:58Z</time>
      </trkpt>
      <trkpt lat="44.44058" lon="1.31998">
        <ele>265</ele>
        <time>2014-03-04T14:32:14Z</time>
      </trkpt>
      <trkpt lat="44.44067" lon="1.3199">
        <ele>268</ele>
        <time>2014-03-04T14:32:28Z</time>
      </trkpt>
      <trkpt lat="44.4408" lon="1.3198">
        <ele>271</ele>
        <time>2014-03-04T14:32:45Z</time>
      </trkpt>
      <trkpt lat="44.44089" lon="1.31974">
        <ele>274</ele>
        <time>2014-03-04T14:32:58Z</time>
      </trkpt>
      <trkpt lat="44.44099" lon="1.31967">
        <ele>274</ele>
        <time>2014-03-04T14:33:11Z</time>
      </trkpt>
      <trkpt lat="44.44112" lon="1.31961">
        <ele>277</ele>
        <time>2014-03-04T14:33:26Z</time>
      </trkpt>
      <trkpt lat="44.44125" lon="1.31955">
        <ele>278</ele>
        <time>2014-03-04T14:33:40Z</time>
      </trkpt>
      <trkpt lat="44.44137" lon="1.3195">
        <ele>279</ele>
        <time>2014-03-04T14:33:53Z</time>
      </trkpt>
      <trkpt lat="44.4415" lon="1.31944">
        <ele>280</ele>
        <time>2014-03-04T14:34:07Z</time>
      </trkpt>
      <trkpt lat="44.44163" lon="1.31941">
        <ele>281</ele>
        <time>2014-03-04T14:34:21Z</time>
      </trkpt>
      <trkpt lat="44.44164" lon="1.31941">
        <ele>281</ele>
        <time>2014-03-04T14:34:22Z</time>
      </trkpt>
      <trkpt lat="44.44174" lon="1.31937">
        <ele>283</ele>
        <time>2014-03-04T14:34:35Z</time>
      </trkpt>
      <trkpt lat="44.44189" lon="1.31937">
        <ele>283</ele>
        <time>2014-03-04T14:34:51Z</time>
      </trkpt>
      <trkpt lat="44.44202" lon="1.31939">
        <ele>285</ele>
        <time>2014-03-04T14:35:04Z</time>
      </trkpt>
      <trkpt lat="44.44218" lon="1.31943">
        <ele>286</ele>
        <time>2014-03-04T14:35:20Z</time>
      </trkpt>
      <trkpt lat="44.44235" lon="1.31946">
        <ele>287</ele>
        <time>2014-03-04T14:35:35Z</time>
      </trkpt>
      <trkpt lat="44.44252" lon="1.31957">
        <ele>287</ele>
        <time>2014-03-04T14:35:52Z</time>
      </trkpt>
      <trkpt lat="44.44255" lon="1.31959">
        <ele>287</ele>
        <time>2014-03-04T14:35:55Z</time>
      </trkpt>
      <trkpt lat="44.44266" lon="1.31973">
        <ele>284</ele>
        <time>2014-03-04T14:36:09Z</time>
      </trkpt>
      <trkpt lat="44.4427" lon="1.31974">
        <ele>283</ele>
        <time>2014-03-04T14:36:13Z</time>
      </trkpt>
      <trkpt lat="44.44273" lon="1.31977">
        <ele>282</ele>
        <time>2014-03-04T14:36:17Z</time>
      </trkpt>
      <trkpt lat="44.44276" lon="1.31979">
        <ele>282</ele>
        <time>2014-03-04T14:36:19Z</time>
      </trkpt>
      <trkpt lat="44.44289" lon="1.31985">
        <ele>282</ele>
        <time>2014-03-04T14:36:31Z</time>
      </trkpt>
      <trkpt lat="44.44307" lon="1.31999">
        <ele>283</ele>
        <time>2014-03-04T14:36:49Z</time>
      </trkpt>
      <trkpt lat="44.44324" lon="1.32023">
        <ele>284</ele>
        <time>2014-03-04T14:37:08Z</time>
      </trkpt>
      <trkpt lat="44.44326" lon="1.32025">
        <ele>286</ele>
        <time>2014-03-04T14:37:18Z</time>
      </trkpt>
      <trkpt lat="44.44327" lon="1.32033">
        <ele>288</ele>
        <time>2014-03-04T14:37:23Z</time>
      </trkpt>
      <trkpt lat="44.44336" lon="1.32058">
        <ele>290</ele>
        <time>2014-03-04T14:37:40Z</time>
      </trkpt>
      <trkpt lat="44.44338" lon="1.32064">
        <ele>291</ele>
        <time>2014-03-04T14:37:46Z</time>
      </trkpt>
      <trkpt lat="44.44346" lon="1.32079">
        <ele>287</ele>
        <time>2014-03-04T14:38:01Z</time>
      </trkpt>
      <trkpt lat="44.44347" lon="1.32083">
        <ele>287</ele>
        <time>2014-03-04T14:38:14Z</time>
      </trkpt>
      <trkpt lat="44.44352" lon="1.32092">
        <ele>286</ele>
        <time>2014-03-04T14:38:21Z</time>
      </trkpt>
      <trkpt lat="44.44357" lon="1.32097">
        <ele>285</ele>
        <time>2014-03-04T14:38:33Z</time>
      </trkpt>
      <trkpt lat="44.44358" lon="1.32096">
        <ele>287</ele>
        <time>2014-03-04T14:38:49Z</time>
      </trkpt>
      <trkpt lat="44.4436" lon="1.321">
        <ele>288</ele>
        <time>2014-03-04T14:39:26Z</time>
      </trkpt>
      <trkpt lat="44.44371" lon="1.32102">
        <ele>287</ele>
        <time>2014-03-04T14:39:40Z</time>
      </trkpt>
      <trkpt lat="44.44376" lon="1.32103">
        <ele>287</ele>
        <time>2014-03-04T14:39:46Z</time>
      </trkpt>
      <trkpt lat="44.44381" lon="1.32102">
        <ele>287</ele>
        <time>2014-03-04T14:39:51Z</time>
      </trkpt>
      <trkpt lat="44.44393" lon="1.32088">
        <ele>287</ele>
        <time>2014-03-04T14:40:08Z</time>
      </trkpt>
      <trkpt lat="44.44402" lon="1.32075">
        <ele>287</ele>
        <time>2014-03-04T14:40:22Z</time>
      </trkpt>
      <trkpt lat="44.44404" lon="1.32071">
        <ele>288</ele>
        <time>2014-03-04T14:40:26Z</time>
      </trkpt>
      <trkpt lat="44.44409" lon="1.32065">
        <ele>288</ele>
        <time>2014-03-04T14:40:33Z</time>
      </trkpt>
      <trkpt lat="44.44411" lon="1.32064">
        <ele>288</ele>
        <time>2014-03-04T14:40:35Z</time>
      </trkpt>
      <trkpt lat="44.44422" lon="1.32047">
        <ele>286</ele>
        <time>2014-03-04T14:40:52Z</time>
      </trkpt>
      <trkpt lat="44.44431" lon="1.32035">
        <ele>285</ele>
        <time>2014-03-04T14:41:06Z</time>
      </trkpt>
      <trkpt lat="44.44438" lon="1.32022">
        <ele>283</ele>
        <time>2014-03-04T14:41:20Z</time>
      </trkpt>
      <trkpt lat="44.44439" lon="1.32021">
        <ele>283</ele>
        <time>2014-03-04T14:41:21Z</time>
      </trkpt>
      <trkpt lat="44.4445" lon="1.32009">
        <ele>285</ele>
        <time>2014-03-04T14:41:37Z</time>
      </trkpt>
      <trkpt lat="44.4445" lon="1.32008">
        <ele>285</ele>
        <time>2014-03-04T14:41:38Z</time>
      </trkpt>
      <trkpt lat="44.4446" lon="1.31995">
        <ele>286</ele>
        <time>2014-03-04T14:41:54Z</time>
      </trkpt>
      <trkpt lat="44.44466" lon="1.3199">
        <ele>287</ele>
        <time>2014-03-04T14:42:07Z</time>
      </trkpt>
      <trkpt lat="44.44474" lon="1.31977">
        <ele>287</ele>
        <time>2014-03-04T14:42:25Z</time>
      </trkpt>
      <trkpt lat="44.44482" lon="1.31967">
        <ele>287</ele>
        <time>2014-03-04T14:42:39Z</time>
      </trkpt>
      <trkpt lat="44.44484" lon="1.31962">
        <ele>286</ele>
        <time>2014-03-04T14:42:55Z</time>
      </trkpt>
      <trkpt lat="44.44491" lon="1.31947">
        <ele>286</ele>
        <time>2014-03-04T14:43:10Z</time>
      </trkpt>
      <trkpt lat="44.44496" lon="1.31935">
        <ele>286</ele>
        <time>2014-03-04T14:43:27Z</time>
      </trkpt>
      <trkpt lat="44.44503" lon="1.31923">
        <ele>287</ele>
        <time>2014-03-04T14:43:49Z</time>
      </trkpt>
      <trkpt lat="44.44513" lon="1.31906">
        <ele>287</ele>
        <time>2014-03-04T14:44:03Z</time>
      </trkpt>
      <trkpt lat="44.44515" lon="1.31904">
        <ele>287</ele>
        <time>2014-03-04T14:44:05Z</time>
      </trkpt>
      <trkpt lat="44.4452" lon="1.31895">
        <ele>286</ele>
        <time>2014-03-04T14:44:13Z</time>
      </trkpt>
      <trkpt lat="44.44533" lon="1.31888">
        <ele>288</ele>
        <time>2014-03-04T14:44:25Z</time>
      </trkpt>
      <trkpt lat="44.44538" lon="1.31883">
        <ele>288</ele>
        <time>2014-03-04T14:44:30Z</time>
      </trkpt>
      <trkpt lat="44.4454" lon="1.31883">
        <ele>288</ele>
        <time>2014-03-04T14:44:32Z</time>
      </trkpt>
      <trkpt lat="44.44555" lon="1.31875">
        <ele>288</ele>
        <time>2014-03-04T14:44:46Z</time>
      </trkpt>
      <trkpt lat="44.44563" lon="1.31871">
        <ele>287</ele>
        <time>2014-03-04T14:44:54Z</time>
      </trkpt>
      <trkpt lat="44.4457" lon="1.31866">
        <ele>286</ele>
        <time>2014-03-04T14:45:00Z</time>
      </trkpt>
      <trkpt lat="44.44584" lon="1.3186">
        <ele>284</ele>
        <time>2014-03-04T14:45:13Z</time>
      </trkpt>
      <trkpt lat="44.44598" lon="1.31852">
        <ele>283</ele>
        <time>2014-03-04T14:45:26Z</time>
      </trkpt>
      <trkpt lat="44.44618" lon="1.31851">
        <ele>281</ele>
        <time>2014-03-04T14:45:44Z</time>
      </trkpt>
      <trkpt lat="44.44635" lon="1.3185">
        <ele>279</ele>
        <time>2014-03-04T14:45:59Z</time>
      </trkpt>
      <trkpt lat="44.44653" lon="1.31853">
        <ele>279</ele>
        <time>2014-03-04T14:46:13Z</time>
      </trkpt>
      <trkpt lat="44.44673" lon="1.31859">
        <ele>277</ele>
        <time>2014-03-04T14:46:30Z</time>
      </trkpt>
      <trkpt lat="44.44685" lon="1.31863">
        <ele>276</ele>
        <time>2014-03-04T14:46:41Z</time>
      </trkpt>
      <trkpt lat="44.44692" lon="1.31864">
        <ele>275</ele>
        <time>2014-03-04T14:46:47Z</time>
      </trkpt>
      <trkpt lat="44.44697" lon="1.31865">
        <ele>275</ele>
        <time>2014-03-04T14:46:50Z</time>
      </trkpt>
      <trkpt lat="44.44701" lon="1.31867">
        <ele>275</ele>
        <time>2014-03-04T14:46:54Z</time>
      </trkpt>
      <trkpt lat="44.4472" lon="1.31869">
        <ele>273</ele>
        <time>2014-03-04T14:47:09Z</time>
      </trkpt>
      <trkpt lat="44.44736" lon="1.31866">
        <ele>273</ele>
        <time>2014-03-04T14:47:23Z</time>
      </trkpt>
      <trkpt lat="44.44755" lon="1.31856">
        <ele>274</ele>
        <time>2014-03-04T14:47:38Z</time>
      </trkpt>
      <trkpt lat="44.44772" lon="1.31846">
        <ele>275</ele>
        <time>2014-03-04T14:47:53Z</time>
      </trkpt>
      <trkpt lat="44.44781" lon="1.31841">
        <ele>275</ele>
        <time>2014-03-04T14:48:01Z</time>
      </trkpt>
      <trkpt lat="44.44797" lon="1.31829">
        <ele>276</ele>
        <time>2014-03-04T14:48:15Z</time>
      </trkpt>
      <trkpt lat="44.44814" lon="1.3182">
        <ele>276</ele>
        <time>2014-03-04T14:48:30Z</time>
      </trkpt>
      <trkpt lat="44.44831" lon="1.31814">
        <ele>274</ele>
        <time>2014-03-04T14:48:45Z</time>
      </trkpt>
      <trkpt lat="44.4484" lon="1.31812">
        <ele>273</ele>
        <time>2014-03-04T14:48:53Z</time>
      </trkpt>
      <trkpt lat="44.44848" lon="1.31807">
        <ele>272</ele>
        <time>2014-03-04T14:49:00Z</time>
      </trkpt>
      <trkpt lat="44.44856" lon="1.31801">
        <ele>273</ele>
        <time>2014-03-04T14:49:08Z</time>
      </trkpt>
      <trkpt lat="44.44858" lon="1.31798">
        <ele>273</ele>
        <time>2014-03-04T14:49:11Z</time>
      </trkpt>
      <trkpt lat="44.44877" lon="1.31784">
        <ele>275</ele>
        <time>2014-03-04T14:49:29Z</time>
      </trkpt>
      <trkpt lat="44.44884" lon="1.31779">
        <ele>274</ele>
        <time>2014-03-04T14:49:35Z</time>
      </trkpt>
      <trkpt lat="44.44886" lon="1.31777">
        <ele>274</ele>
        <time>2014-03-04T14:49:37Z</time>
      </trkpt>
      <trkpt lat="44.44891" lon="1.31774">
        <ele>275</ele>
        <time>2014-03-04T14:49:42Z</time>
      </trkpt>
      <trkpt lat="44.44895" lon="1.31771">
        <ele>275</ele>
        <time>2014-03-04T14:50:05Z</time>
      </trkpt>
      <trkpt lat="44.44905" lon="1.31763">
        <ele>275</ele>
        <time>2014-03-04T14:50:21Z</time>
      </trkpt>
      <trkpt lat="44.44916" lon="1.31759">
        <ele>276</ele>
        <time>2014-03-04T14:50:31Z</time>
      </trkpt>
      <trkpt lat="44.44935" lon="1.31752">
        <ele>277</ele>
        <time>2014-03-04T14:50:47Z</time>
      </trkpt>
      <trkpt lat="44.4494" lon="1.31751">
        <ele>277</ele>
        <time>2014-03-04T14:50:51Z</time>
      </trkpt>
      <trkpt lat="44.44945" lon="1.31748">
        <ele>277</ele>
        <time>2014-03-04T14:50:56Z</time>
      </trkpt>
      <trkpt lat="44.44961" lon="1.31742">
        <ele>279</ele>
        <time>2014-03-04T14:51:10Z</time>
      </trkpt>
      <trkpt lat="44.44972" lon="1.31738">
        <ele>279</ele>
        <time>2014-03-04T14:51:24Z</time>
      </trkpt>
      <trkpt lat="44.44972" lon="1.31738">
        <ele>279</ele>
        <time>2014-03-04T14:51:28Z</time>
      </trkpt>
      <trkpt lat="44.44979" lon="1.31735">
        <ele>280</ele>
        <time>2014-03-04T14:51:34Z</time>
      </trkpt>
      <trkpt lat="44.44982" lon="1.31736">
        <ele>280</ele>
        <time>2014-03-04T14:51:38Z</time>
      </trkpt>
      <trkpt lat="44.44986" lon="1.31735">
        <ele>280</ele>
        <time>2014-03-04T14:51:42Z</time>
      </trkpt>
      <trkpt lat="44.44992" lon="1.31736">
        <ele>280</ele>
        <time>2014-03-04T14:51:47Z</time>
      </trkpt>
      <trkpt lat="44.44998" lon="1.31735">
        <ele>278</ele>
        <time>2014-03-04T14:51:53Z</time>
      </trkpt>
      <trkpt lat="44.45011" lon="1.31732">
        <ele>275</ele>
        <time>2014-03-04T14:52:06Z</time>
      </trkpt>
      <trkpt lat="44.45019" lon="1.31723">
        <ele>276</ele>
        <time>2014-03-04T14:52:16Z</time>
      </trkpt>
      <trkpt lat="44.4502" lon="1.3172">
        <ele>276</ele>
        <time>2014-03-04T14:52:18Z</time>
      </trkpt>
      <trkpt lat="44.45026" lon="1.31712">
        <ele>277</ele>
        <time>2014-03-04T14:52:24Z</time>
      </trkpt>
      <trkpt lat="44.4504" lon="1.31689">
        <ele>279</ele>
        <time>2014-03-04T14:52:41Z</time>
      </trkpt>
      <trkpt lat="44.45049" lon="1.3168">
        <ele>280</ele>
        <time>2014-03-04T14:52:53Z</time>
      </trkpt>
      <trkpt lat="44.45063" lon="1.3167">
        <ele>282</ele>
        <time>2014-03-04T14:53:07Z</time>
      </trkpt>
      <trkpt lat="44.4508" lon="1.3166">
        <ele>284</ele>
        <time>2014-03-04T14:53:23Z</time>
      </trkpt>
      <trkpt lat="44.45094" lon="1.31654">
        <ele>284</ele>
        <time>2014-03-04T14:53:37Z</time>
      </trkpt>
      <trkpt lat="44.45105" lon="1.31653">
        <ele>285</ele>
        <time>2014-03-04T14:53:49Z</time>
      </trkpt>
      <trkpt lat="44.45115" lon="1.31652">
        <ele>284</ele>
        <time>2014-03-04T14:53:59Z</time>
      </trkpt>
      <trkpt lat="44.45131" lon="1.31653">
        <ele>285</ele>
        <time>2014-03-04T14:54:14Z</time>
      </trkpt>
      <trkpt lat="44.45144" lon="1.31655">
        <ele>285</ele>
        <time>2014-03-04T14:54:28Z</time>
      </trkpt>
      <trkpt lat="44.45153" lon="1.31658">
        <ele>287</ele>
        <time>2014-03-04T14:54:40Z</time>
      </trkpt>
      <trkpt lat="44.45164" lon="1.3166">
        <ele>289</ele>
        <time>2014-03-04T14:54:55Z</time>
      </trkpt>
      <trkpt lat="44.45176" lon="1.31661">
        <ele>290</ele>
        <time>2014-03-04T14:55:08Z</time>
      </trkpt>
      <trkpt lat="44.45191" lon="1.31661">
        <ele>292</ele>
        <time>2014-03-04T14:55:22Z</time>
      </trkpt>
      <trkpt lat="44.45197" lon="1.31661">
        <ele>292</ele>
        <time>2014-03-04T14:55:27Z</time>
      </trkpt>
      <trkpt lat="44.45203" lon="1.31661">
        <ele>292</ele>
        <time>2014-03-04T14:55:32Z</time>
      </trkpt>
      <trkpt lat="44.45222" lon="1.31663">
        <ele>293</ele>
        <time>2014-03-04T14:55:49Z</time>
      </trkpt>
      <trkpt lat="44.45234" lon="1.31663">
        <ele>295</ele>
        <time>2014-03-04T14:56:02Z</time>
      </trkpt>
      <trkpt lat="44.45241" lon="1.31664">
        <ele>296</ele>
        <time>2014-03-04T14:56:09Z</time>
      </trkpt>
      <trkpt lat="44.45246" lon="1.31666">
        <ele>297</ele>
        <time>2014-03-04T14:56:15Z</time>
      </trkpt>
      <trkpt lat="44.45261" lon="1.31667">
        <ele>299</ele>
        <time>2014-03-04T14:56:29Z</time>
      </trkpt>
      <trkpt lat="44.45279" lon="1.31671">
        <ele>302</ele>
        <time>2014-03-04T14:56:44Z</time>
      </trkpt>
      <trkpt lat="44.45292" lon="1.31673">
        <ele>302</ele>
        <time>2014-03-04T14:56:54Z</time>
      </trkpt>
      <trkpt lat="44.45309" lon="1.31678">
        <ele>302</ele>
        <time>2014-03-04T14:57:08Z</time>
      </trkpt>
      <trkpt lat="44.45321" lon="1.3168">
        <ele>300</ele>
        <time>2014-03-04T14:57:18Z</time>
      </trkpt>
      <trkpt lat="44.45339" lon="1.31685">
        <ele>297</ele>
        <time>2014-03-04T14:57:34Z</time>
      </trkpt>
      <trkpt lat="44.45355" lon="1.31689">
        <ele>297</ele>
        <time>2014-03-04T14:57:48Z</time>
      </trkpt>
      <trkpt lat="44.45371" lon="1.3169">
        <ele>295</ele>
        <time>2014-03-04T14:58:01Z</time>
      </trkpt>
      <trkpt lat="44.45378" lon="1.31691">
        <ele>296</ele>
        <time>2014-03-04T14:58:08Z</time>
      </trkpt>
      <trkpt lat="44.45386" lon="1.31689">
        <ele>296</ele>
        <time>2014-03-04T14:58:16Z</time>
      </trkpt>
      <trkpt lat="44.45395" lon="1.31682">
        <ele>296</ele>
        <time>2014-03-04T14:58:26Z</time>
      </trkpt>
      <trkpt lat="44.45404" lon="1.31676">
        <ele>297</ele>
        <time>2014-03-04T14:58:34Z</time>
      </trkpt>
      <trkpt lat="44.45408" lon="1.31672">
        <ele>297</ele>
        <time>2014-03-04T14:58:38Z</time>
      </trkpt>
      <trkpt lat="44.45416" lon="1.31665">
        <ele>297</ele>
        <time>2014-03-04T14:58:45Z</time>
      </trkpt>
      <trkpt lat="44.45424" lon="1.31655">
        <ele>298</ele>
        <time>2014-03-04T14:58:54Z</time>
      </trkpt>
      <trkpt lat="44.45435" lon="1.31637">
        <ele>297</ele>
        <time>2014-03-04T14:59:07Z</time>
      </trkpt>
      <trkpt lat="44.45436" lon="1.31633">
        <ele>297</ele>
        <time>2014-03-04T14:59:09Z</time>
      </trkpt>
      <trkpt lat="44.45445" lon="1.31612">
        <ele>297</ele>
        <time>2014-03-04T14:59:24Z</time>
      </trkpt>
      <trkpt lat="44.4545" lon="1.31597">
        <ele>296</ele>
        <time>2014-03-04T14:59:34Z</time>
      </trkpt>
      <trkpt lat="44.45452" lon="1.31588">
        <ele>296</ele>
        <time>2014-03-04T14:59:39Z</time>
      </trkpt>
      <trkpt lat="44.45456" lon="1.31571">
        <ele>293</ele>
        <time>2014-03-04T14:59:49Z</time>
      </trkpt>
      <trkpt lat="44.4546" lon="1.31559">
        <ele>293</ele>
        <time>2014-03-04T14:59:56Z</time>
      </trkpt>
      <trkpt lat="44.45476" lon="1.31538">
        <ele>293</ele>
        <time>2014-03-04T15:00:14Z</time>
      </trkpt>
      <trkpt lat="44.45492" lon="1.31526">
        <ele>293</ele>
        <time>2014-03-04T15:00:29Z</time>
      </trkpt>
      <trkpt lat="44.45502" lon="1.31519">
        <ele>294</ele>
        <time>2014-03-04T15:00:38Z</time>
      </trkpt>
      <trkpt lat="44.45506" lon="1.31515">
        <ele>293</ele>
        <time>2014-03-04T15:00:42Z</time>
      </trkpt>
      <trkpt lat="44.45513" lon="1.31511">
        <ele>293</ele>
        <time>2014-03-04T15:00:49Z</time>
      </trkpt>
      <trkpt lat="44.45517" lon="1.31508">
        <ele>293</ele>
        <time>2014-03-04T15:00:53Z</time>
      </trkpt>
      <trkpt lat="44.45522" lon="1.31506">
        <ele>293</ele>
        <time>2014-03-04T15:00:58Z</time>
      </trkpt>
      <trkpt lat="44.45538" lon="1.31495">
        <ele>294</ele>
        <time>2014-03-04T15:01:12Z</time>
      </trkpt>
      <trkpt lat="44.45544" lon="1.31493">
        <ele>294</ele>
        <time>2014-03-04T15:01:25Z</time>
      </trkpt>
      <trkpt lat="44.45546" lon="1.3149">
        <ele>294</ele>
        <time>2014-03-04T15:01:29Z</time>
      </trkpt>
      <trkpt lat="44.45557" lon="1.31476">
        <ele>292</ele>
        <time>2014-03-04T15:01:41Z</time>
      </trkpt>
      <trkpt lat="44.45574" lon="1.31464">
        <ele>291</ele>
        <time>2014-03-04T15:01:56Z</time>
      </trkpt>
      <trkpt lat="44.45594" lon="1.31461">
        <ele>289</ele>
        <time>2014-03-04T15:02:12Z</time>
      </trkpt>
      <trkpt lat="44.45604" lon="1.31463">
        <ele>289</ele>
        <time>2014-03-04T15:02:21Z</time>
      </trkpt>
      <trkpt lat="44.45615" lon="1.31467">
        <ele>287</ele>
        <time>2014-03-04T15:02:31Z</time>
      </trkpt>
      <trkpt lat="44.45619" lon="1.3147">
        <ele>285</ele>
        <time>2014-03-04T15:02:35Z</time>
      </trkpt>
      <trkpt lat="44.45624" lon="1.31474">
        <ele>284</ele>
        <time>2014-03-04T15:02:39Z</time>
      </trkpt>
      <trkpt lat="44.4563" lon="1.31477">
        <ele>284</ele>
        <time>2014-03-04T15:02:44Z</time>
      </trkpt>
      <trkpt lat="44.45634" lon="1.31481">
        <ele>284</ele>
        <time>2014-03-04T15:02:48Z</time>
      </trkpt>
      <trkpt lat="44.45647" lon="1.31491">
        <ele>279</ele>
        <time>2014-03-04T15:03:02Z</time>
      </trkpt>
      <trkpt lat="44.4566" lon="1.31496">
        <ele>273</ele>
        <time>2014-03-04T15:03:15Z</time>
      </trkpt>
      <trkpt lat="44.45665" lon="1.31496">
        <ele>272</ele>
        <time>2014-03-04T15:03:19Z</time>
      </trkpt>
      <trkpt lat="44.45682" lon="1.31496">
        <ele>270</ele>
        <time>2014-03-04T15:03:33Z</time>
      </trkpt>
      <trkpt lat="44.45699" lon="1.31496">
        <ele>269</ele>
        <time>2014-03-04T15:03:48Z</time>
      </trkpt>
      <trkpt lat="44.45713" lon="1.31494">
        <ele>267</ele>
        <time>2014-03-04T15:04:00Z</time>
      </trkpt>
      <trkpt lat="44.45724" lon="1.31494">
        <ele>266</ele>
        <time>2014-03-04T15:04:10Z</time>
      </trkpt>
      <trkpt lat="44.45741" lon="1.31493">
        <ele>264</ele>
        <time>2014-03-04T15:04:24Z</time>
      </trkpt>
      <trkpt lat="44.45756" lon="1.31491">
        <ele>260</ele>
        <time>2014-03-04T15:04:37Z</time>
      </trkpt>
      <trkpt lat="44.45771" lon="1.31491">
        <ele>260</ele>
        <time>2014-03-04T15:04:50Z</time>
      </trkpt>
      <trkpt lat="44.45785" lon="1.31489">
        <ele>257</ele>
        <time>2014-03-04T15:05:02Z</time>
      </trkpt>
      <trkpt lat="44.45798" lon="1.31491">
        <ele>258</ele>
        <time>2014-03-04T15:05:13Z</time>
      </trkpt>
      <trkpt lat="44.45817" lon="1.31489">
        <ele>258</ele>
        <time>2014-03-04T15:05:28Z</time>
      </trkpt>
      <trkpt lat="44.45822" lon="1.31489">
        <ele>258</ele>
        <time>2014-03-04T15:05:31Z</time>
      </trkpt>
      <trkpt lat="44.45827" lon="1.31488">
        <ele>258</ele>
        <time>2014-03-04T15:05:35Z</time>
      </trkpt>
      <trkpt lat="44.45846" lon="1.31487">
        <ele>257</ele>
        <time>2014-03-04T15:05:49Z</time>
      </trkpt>
      <trkpt lat="44.4586" lon="1.31488">
        <ele>256</ele>
        <time>2014-03-04T15:06:00Z</time>
      </trkpt>
      <trkpt lat="44.45871" lon="1.31488">
        <ele>253</ele>
        <time>2014-03-04T15:06:12Z</time>
      </trkpt>
      <trkpt lat="44.45889" lon="1.31488">
        <ele>252</ele>
        <time>2014-03-04T15:06:25Z</time>
      </trkpt>
      <trkpt lat="44.4589" lon="1.31489">
        <ele>252</ele>
        <time>2014-03-04T15:06:26Z</time>
      </trkpt>
      <trkpt lat="44.45913" lon="1.31488">
        <ele>254</ele>
        <time>2014-03-04T15:06:42Z</time>
      </trkpt>
      <trkpt lat="44.45918" lon="1.31488">
        <ele>254</ele>
        <time>2014-03-04T15:06:46Z</time>
      </trkpt>
      <trkpt lat="44.45927" lon="1.31488">
        <ele>254</ele>
        <time>2014-03-04T15:06:52Z</time>
      </trkpt>
      <trkpt lat="44.45945" lon="1.31491">
        <ele>253</ele>
        <time>2014-03-04T15:07:08Z</time>
      </trkpt>
      <trkpt lat="44.45958" lon="1.31489">
        <ele>256</ele>
        <time>2014-03-04T15:07:18Z</time>
      </trkpt>
      <trkpt lat="44.4597" lon="1.31499">
        <ele>256</ele>
        <time>2014-03-04T15:07:31Z</time>
      </trkpt>
      <trkpt lat="44.4599" lon="1.31503">
        <ele>258</ele>
        <time>2014-03-04T15:07:46Z</time>
      </trkpt>
      <trkpt lat="44.45994" lon="1.31503">
        <ele>258</ele>
        <time>2014-03-04T15:07:49Z</time>
      </trkpt>
      <trkpt lat="44.45998" lon="1.31504">
        <ele>259</ele>
        <time>2014-03-04T15:07:52Z</time>
      </trkpt>
      <trkpt lat="44.4601" lon="1.31508">
        <ele>259</ele>
        <time>2014-03-04T15:08:04Z</time>
      </trkpt>
      <trkpt lat="44.46014" lon="1.31507">
        <ele>260</ele>
        <time>2014-03-04T15:08:09Z</time>
      </trkpt>
      <trkpt lat="44.46019" lon="1.31509">
        <ele>260</ele>
        <time>2014-03-04T15:08:14Z</time>
      </trkpt>
      <trkpt lat="44.46025" lon="1.31512">
        <ele>261</ele>
        <time>2014-03-04T15:08:20Z</time>
      </trkpt>
      <trkpt lat="44.46028" lon="1.31514">
        <ele>260</ele>
        <time>2014-03-04T15:08:23Z</time>
      </trkpt>
      <trkpt lat="44.46044" lon="1.31517">
        <ele>260</ele>
        <time>2014-03-04T15:08:36Z</time>
      </trkpt>
      <trkpt lat="44.46061" lon="1.31519">
        <ele>260</ele>
        <time>2014-03-04T15:08:49Z</time>
      </trkpt>
      <trkpt lat="44.46074" lon="1.31519">
        <ele>259</ele>
        <time>2014-03-04T15:09:01Z</time>
      </trkpt>
      <trkpt lat="44.46092" lon="1.31517">
        <ele>257</ele>
        <time>2014-03-04T15:09:16Z</time>
      </trkpt>
      <trkpt lat="44.46104" lon="1.31516">
        <ele>256</ele>
        <time>2014-03-04T15:09:27Z</time>
      </trkpt>
      <trkpt lat="44.46107" lon="1.31516">
        <ele>255</ele>
        <time>2014-03-04T15:09:30Z</time>
      </trkpt>
      <trkpt lat="44.46124" lon="1.31518">
        <ele>258</ele>
        <time>2014-03-04T15:09:44Z</time>
      </trkpt>
      <trkpt lat="44.46128" lon="1.3152">
        <ele>258</ele>
        <time>2014-03-04T15:09:47Z</time>
      </trkpt>
      <trkpt lat="44.46142" lon="1.31523">
        <ele>258</ele>
        <time>2014-03-04T15:09:59Z</time>
      </trkpt>
      <trkpt lat="44.46156" lon="1.31525">
        <ele>256</ele>
        <time>2014-03-04T15:10:10Z</time>
      </trkpt>
      <trkpt lat="44.4617" lon="1.31527">
        <ele>253</ele>
        <time>2014-03-04T15:10:23Z</time>
      </trkpt>
      <trkpt lat="44.46185" lon="1.31529">
        <ele>252</ele>
        <time>2014-03-04T15:10:37Z</time>
      </trkpt>
      <trkpt lat="44.46195" lon="1.31528">
        <ele>249</ele>
        <time>2014-03-04T15:10:50Z</time>
      </trkpt>
      <trkpt lat="44.46197" lon="1.31528">
        <ele>249</ele>
        <time>2014-03-04T15:10:53Z</time>
      </trkpt>
      <trkpt lat="44.46218" lon="1.31524">
        <ele>250</ele>
        <time>2014-03-04T15:11:08Z</time>
      </trkpt>
      <trkpt lat="44.46229" lon="1.31522">
        <ele>252</ele>
        <time>2014-03-04T15:11:15Z</time>
      </trkpt>
      <trkpt lat="44.46232" lon="1.31523">
        <ele>253</ele>
        <time>2014-03-04T15:11:17Z</time>
      </trkpt>
      <trkpt lat="44.46239" lon="1.31521">
        <ele>255</ele>
        <time>2014-03-04T15:11:21Z</time>
      </trkpt>
      <trkpt lat="44.46255" lon="1.31518">
        <ele>257</ele>
        <time>2014-03-04T15:11:34Z</time>
      </trkpt>
      <trkpt lat="44.46268" lon="1.31514">
        <ele>258</ele>
        <time>2014-03-04T15:11:43Z</time>
      </trkpt>
      <trkpt lat="44.46286" lon="1.31508">
        <ele>259</ele>
        <time>2014-03-04T15:11:57Z</time>
      </trkpt>
      <trkpt lat="44.46295" lon="1.31505">
        <ele>260</ele>
        <time>2014-03-04T15:12:03Z</time>
      </trkpt>
      <trkpt lat="44.46309" lon="1.31499">
        <ele>261</ele>
        <time>2014-03-04T15:12:16Z</time>
      </trkpt>
      <trkpt lat="44.4632" lon="1.31494">
        <ele>260</ele>
        <time>2014-03-04T15:12:26Z</time>
      </trkpt>
      <trkpt lat="44.46331" lon="1.3149">
        <ele>260</ele>
        <time>2014-03-04T15:12:34Z</time>
      </trkpt>
      <trkpt lat="44.46347" lon="1.31483">
        <ele>260</ele>
        <time>2014-03-04T15:12:48Z</time>
      </trkpt>
      <trkpt lat="44.46357" lon="1.3148">
        <ele>259</ele>
        <time>2014-03-04T15:12:58Z</time>
      </trkpt>
      <trkpt lat="44.46359" lon="1.31481">
        <ele>259</ele>
        <time>2014-03-04T15:13:02Z</time>
      </trkpt>
      <trkpt lat="44.46375" lon="1.31477">
        <ele>257</ele>
        <time>2014-03-04T15:13:15Z</time>
      </trkpt>
      <trkpt lat="44.4639" lon="1.31473">
        <ele>258</ele>
        <time>2014-03-04T15:13:28Z</time>
      </trkpt>
      <trkpt lat="44.46404" lon="1.3147">
        <ele>258</ele>
        <time>2014-03-04T15:13:41Z</time>
      </trkpt>
      <trkpt lat="44.46417" lon="1.31466">
        <ele>259</ele>
        <time>2014-03-04T15:13:53Z</time>
      </trkpt>
      <trkpt lat="44.46418" lon="1.31466">
        <ele>259</ele>
        <time>2014-03-04T15:13:54Z</time>
      </trkpt>
      <trkpt lat="44.46438" lon="1.3146">
        <ele>263</ele>
        <time>2014-03-04T15:14:10Z</time>
      </trkpt>
      <trkpt lat="44.46445" lon="1.31458">
        <ele>264</ele>
        <time>2014-03-04T15:14:16Z</time>
      </trkpt>
      <trkpt lat="44.46453" lon="1.31456">
        <ele>266</ele>
        <time>2014-03-04T15:14:23Z</time>
      </trkpt>
      <trkpt lat="44.46456" lon="1.31456">
        <ele>266</ele>
        <time>2014-03-04T15:14:26Z</time>
      </trkpt>
      <trkpt lat="44.46465" lon="1.31452">
        <ele>268</ele>
        <time>2014-03-04T15:14:42Z</time>
      </trkpt>
      <trkpt lat="44.46477" lon="1.31449">
        <ele>271</ele>
        <time>2014-03-04T15:14:53Z</time>
      </trkpt>
      <trkpt lat="44.46491" lon="1.31444">
        <ele>272</ele>
        <time>2014-03-04T15:15:04Z</time>
      </trkpt>
      <trkpt lat="44.46504" lon="1.31439">
        <ele>273</ele>
        <time>2014-03-04T15:15:16Z</time>
      </trkpt>
      <trkpt lat="44.46518" lon="1.31433">
        <ele>272</ele>
        <time>2014-03-04T15:15:30Z</time>
      </trkpt>
      <trkpt lat="44.46519" lon="1.31433">
        <ele>272</ele>
        <time>2014-03-04T15:15:31Z</time>
      </trkpt>
      <trkpt lat="44.46529" lon="1.31429">
        <ele>272</ele>
        <time>2014-03-04T15:15:41Z</time>
      </trkpt>
      <trkpt lat="44.46546" lon="1.31422">
        <ele>275</ele>
        <time>2014-03-04T15:15:56Z</time>
      </trkpt>
      <trkpt lat="44.46554" lon="1.31418">
        <ele>275</ele>
        <time>2014-03-04T15:16:04Z</time>
      </trkpt>
      <trkpt lat="44.46561" lon="1.31414">
        <ele>276</ele>
        <time>2014-03-04T15:16:10Z</time>
      </trkpt>
      <trkpt lat="44.46572" lon="1.31408">
        <ele>279</ele>
        <time>2014-03-04T15:16:20Z</time>
      </trkpt>
      <trkpt lat="44.46576" lon="1.31404">
        <ele>281</ele>
        <time>2014-03-04T15:16:24Z</time>
      </trkpt>
      <trkpt lat="44.46579" lon="1.31403">
        <ele>281</ele>
        <time>2014-03-04T15:16:26Z</time>
      </trkpt>
      <trkpt lat="44.46594" lon="1.3139">
        <ele>284</ele>
        <time>2014-03-04T15:16:42Z</time>
      </trkpt>
      <trkpt lat="44.46596" lon="1.31388">
        <ele>284</ele>
        <time>2014-03-04T15:16:44Z</time>
      </trkpt>
      <trkpt lat="44.46602" lon="1.31383">
        <ele>285</ele>
        <time>2014-03-04T15:16:50Z</time>
      </trkpt>
      <trkpt lat="44.46605" lon="1.31381">
        <ele>286</ele>
        <time>2014-03-04T15:16:54Z</time>
      </trkpt>
      <trkpt lat="44.46613" lon="1.31372">
        <ele>287</ele>
        <time>2014-03-04T15:17:03Z</time>
      </trkpt>
      <trkpt lat="44.46623" lon="1.31362">
        <ele>288</ele>
        <time>2014-03-04T15:17:14Z</time>
      </trkpt>
      <trkpt lat="44.46626" lon="1.31359">
        <ele>288</ele>
        <time>2014-03-04T15:17:18Z</time>
      </trkpt>
      <trkpt lat="44.46637" lon="1.31349">
        <ele>289</ele>
        <time>2014-03-04T15:17:29Z</time>
      </trkpt>
      <trkpt lat="44.46639" lon="1.31348">
        <ele>289</ele>
        <time>2014-03-04T15:17:31Z</time>
      </trkpt>
      <trkpt lat="44.46647" lon="1.31341">
        <ele>289</ele>
        <time>2014-03-04T15:17:39Z</time>
      </trkpt>
      <trkpt lat="44.46649" lon="1.3134">
        <ele>290</ele>
        <time>2014-03-04T15:17:41Z</time>
      </trkpt>
      <trkpt lat="44.46663" lon="1.31329">
        <ele>290</ele>
        <time>2014-03-04T15:17:56Z</time>
      </trkpt>
      <trkpt lat="44.46663" lon="1.31328">
        <ele>290</ele>
        <time>2014-03-04T15:17:59Z</time>
      </trkpt>
      <trkpt lat="44.46679" lon="1.31313">
        <ele>290</ele>
        <time>2014-03-04T15:18:15Z</time>
      </trkpt>
      <trkpt lat="44.46691" lon="1.31302">
        <ele>291</ele>
        <time>2014-03-04T15:18:27Z</time>
      </trkpt>
      <trkpt lat="44.46696" lon="1.31298">
        <ele>292</ele>
        <time>2014-03-04T15:18:32Z</time>
      </trkpt>
      <trkpt lat="44.46707" lon="1.31289">
        <ele>292</ele>
        <time>2014-03-04T15:18:44Z</time>
      </trkpt>
      <trkpt lat="44.46713" lon="1.31285">
        <ele>291</ele>
        <time>2014-03-04T15:18:51Z</time>
      </trkpt>
      <trkpt lat="44.46718" lon="1.3128">
        <ele>291</ele>
        <time>2014-03-04T15:18:56Z</time>
      </trkpt>
      <trkpt lat="44.46719" lon="1.31274">
        <ele>291</ele>
        <time>2014-03-04T15:19:02Z</time>
      </trkpt>
      <trkpt lat="44.46722" lon="1.3127">
        <ele>292</ele>
        <time>2014-03-04T15:19:06Z</time>
      </trkpt>
      <trkpt lat="44.46734" lon="1.31259">
        <ele>292</ele>
        <time>2014-03-04T15:19:23Z</time>
      </trkpt>
      <trkpt lat="44.46736" lon="1.31253">
        <ele>291</ele>
        <time>2014-03-04T15:19:31Z</time>
      </trkpt>
      <trkpt lat="44.46743" lon="1.31245">
        <ele>290</ele>
        <time>2014-03-04T15:19:44Z</time>
      </trkpt>
      <trkpt lat="44.46744" lon="1.31243">
        <ele>290</ele>
        <time>2014-03-04T15:19:48Z</time>
      </trkpt>
      <trkpt lat="44.46748" lon="1.31236">
        <ele>290</ele>
        <time>2014-03-04T15:19:57Z</time>
      </trkpt>
      <trkpt lat="44.46756" lon="1.31227">
        <ele>291</ele>
        <time>2014-03-04T15:20:14Z</time>
      </trkpt>
      <trkpt lat="44.4676" lon="1.3123">
        <ele>290</ele>
        <time>2014-03-04T15:20:21Z</time>
      </trkpt>
      <trkpt lat="44.46761" lon="1.31229">
        <ele>289</ele>
        <time>2014-03-04T15:20:23Z</time>
      </trkpt>
      <trkpt lat="44.46764" lon="1.31228">
        <ele>289</ele>
        <time>2014-03-04T15:20:25Z</time>
      </trkpt>
      <trkpt lat="44.46774" lon="1.31211">
        <ele>290</ele>
        <time>2014-03-04T15:20:40Z</time>
      </trkpt>
      <trkpt lat="44.46782" lon="1.31198">
        <ele>291</ele>
        <time>2014-03-04T15:20:53Z</time>
      </trkpt>
      <trkpt lat="44.46787" lon="1.31188">
        <ele>291</ele>
        <time>2014-03-04T15:21:06Z</time>
      </trkpt>
      <trkpt lat="44.46793" lon="1.31172">
        <ele>291</ele>
        <time>2014-03-04T15:21:17Z</time>
      </trkpt>
      <trkpt lat="44.468" lon="1.31156">
        <ele>292</ele>
        <time>2014-03-04T15:21:28Z</time>
      </trkpt>
      <trkpt lat="44.46807" lon="1.31135">
        <ele>292</ele>
        <time>2014-03-04T15:21:43Z</time>
      </trkpt>
      <trkpt lat="44.46812" lon="1.31124">
        <ele>292</ele>
        <time>2014-03-04T15:21:50Z</time>
      </trkpt>
      <trkpt lat="44.4682" lon="1.31105">
        <ele>291</ele>
        <time>2014-03-04T15:22:04Z</time>
      </trkpt>
      <trkpt lat="44.46822" lon="1.31103">
        <ele>291</ele>
        <time>2014-03-04T15:22:06Z</time>
      </trkpt>
      <trkpt lat="44.46828" lon="1.3109">
        <ele>289</ele>
        <time>2014-03-04T15:22:15Z</time>
      </trkpt>
      <trkpt lat="44.4684" lon="1.31072">
        <ele>285</ele>
        <time>2014-03-04T15:22:32Z</time>
      </trkpt>
      <trkpt lat="44.46841" lon="1.3107">
        <ele>285</ele>
        <time>2014-03-04T15:22:34Z</time>
      </trkpt>
      <trkpt lat="44.46843" lon="1.31068">
        <ele>285</ele>
        <time>2014-03-04T15:22:36Z</time>
      </trkpt>
      <trkpt lat="44.46857" lon="1.31049">
        <ele>286</ele>
        <time>2014-03-04T15:22:52Z</time>
      </trkpt>
      <trkpt lat="44.46867" lon="1.31035">
        <ele>284</ele>
        <time>2014-03-04T15:23:06Z</time>
      </trkpt>
      <trkpt lat="44.46879" lon="1.3102">
        <ele>281</ele>
        <time>2014-03-04T15:23:20Z</time>
      </trkpt>
      <trkpt lat="44.4689" lon="1.31008">
        <ele>276</ele>
        <time>2014-03-04T15:23:35Z</time>
      </trkpt>
      <trkpt lat="44.46894" lon="1.31003">
        <ele>276</ele>
        <time>2014-03-04T15:23:40Z</time>
      </trkpt>
      <trkpt lat="44.46897" lon="1.31">
        <ele>275</ele>
        <time>2014-03-04T15:23:43Z</time>
      </trkpt>
      <trkpt lat="44.4691" lon="1.30988">
        <ele>272</ele>
        <time>2014-03-04T15:23:58Z</time>
      </trkpt>
      <trkpt lat="44.46919" lon="1.3098">
        <ele>272</ele>
        <time>2014-03-04T15:24:06Z</time>
      </trkpt>
      <trkpt lat="44.46924" lon="1.30975">
        <ele>270</ele>
        <time>2014-03-04T15:24:13Z</time>
      </trkpt>
      <trkpt lat="44.46942" lon="1.30961">
        <ele>267</ele>
        <time>2014-03-04T15:24:31Z</time>
      </trkpt>
      <trkpt lat="44.46945" lon="1.30959">
        <ele>267</ele>
        <time>2014-03-04T15:24:33Z</time>
      </trkpt>
      <trkpt lat="44.46962" lon="1.30949">
        <ele>268</ele>
        <time>2014-03-04T15:24:47Z</time>
      </trkpt>
      <trkpt lat="44.46978" lon="1.30939">
        <ele>265</ele>
        <time>2014-03-04T15:25:01Z</time>
      </trkpt>
      <trkpt lat="44.4698" lon="1.30939">
        <ele>264</ele>
        <time>2014-03-04T15:25:03Z</time>
      </trkpt>
      <trkpt lat="44.46988" lon="1.30937">
        <ele>264</ele>
        <time>2014-03-04T15:25:09Z</time>
      </trkpt>
      <trkpt lat="44.46997" lon="1.30932">
        <ele>264</ele>
        <time>2014-03-04T15:25:17Z</time>
      </trkpt>
      <trkpt lat="44.47016" lon="1.30917">
        <ele>263</ele>
        <time>2014-03-04T15:25:34Z</time>
      </trkpt>
      <trkpt lat="44.47032" lon="1.309">
        <ele>262</ele>
        <time>2014-03-04T15:25:49Z</time>
      </trkpt>
      <trkpt lat="44.47047" lon="1.30883">
        <ele>261</ele>
        <time>2014-03-04T15:26:04Z</time>
      </trkpt>
      <trkpt lat="44.47061" lon="1.30867">
        <ele>262</ele>
        <time>2014-03-04T15:26:18Z</time>
      </trkpt>
      <trkpt lat="44.47078" lon="1.30853">
        <ele>261</ele>
        <time>2014-03-04T15:26:34Z</time>
      </trkpt>
      <trkpt lat="44.47097" lon="1.30838">
        <ele>261</ele>
        <time>2014-03-04T15:26:50Z</time>
      </trkpt>
      <trkpt lat="44.47115" lon="1.30828">
        <ele>260</ele>
        <time>2014-03-04T15:27:06Z</time>
      </trkpt>
      <trkpt lat="44.47121" lon="1.30824">
        <ele>259</ele>
        <time>2014-03-04T15:27:11Z</time>
      </trkpt>
      <trkpt lat="44.47137" lon="1.30812">
        <ele>256</ele>
        <time>2014-03-04T15:27:26Z</time>
      </trkpt>
      <trkpt lat="44.47148" lon="1.30806">
        <ele>253</ele>
        <time>2014-03-04T15:27:39Z</time>
      </trkpt>
      <trkpt lat="44.47163" lon="1.308">
        <ele>251</ele>
        <time>2014-03-04T15:27:54Z</time>
      </trkpt>
      <trkpt lat="44.47172" lon="1.30797">
        <ele>250</ele>
        <time>2014-03-04T15:28:04Z</time>
      </trkpt>
      <trkpt lat="44.47187" lon="1.30795">
        <ele>248</ele>
        <time>2014-03-04T15:28:20Z</time>
      </trkpt>
      <trkpt lat="44.47204" lon="1.30792">
        <ele>244</ele>
        <time>2014-03-04T15:28:36Z</time>
      </trkpt>
      <trkpt lat="44.4722" lon="1.30785">
        <ele>241</ele>
        <time>2014-03-04T15:28:54Z</time>
      </trkpt>
      <trkpt lat="44.47235" lon="1.30773">
        <ele>239</ele>
        <time>2014-03-04T15:29:12Z</time>
      </trkpt>
      <trkpt lat="44.47249" lon="1.30758">
        <ele>237</ele>
        <time>2014-03-04T15:29:27Z</time>
      </trkpt>
      <trkpt lat="44.47254" lon="1.30753">
        <ele>236</ele>
        <time>2014-03-04T15:29:32Z</time>
      </trkpt>
      <trkpt lat="44.47259" lon="1.30743">
        <ele>233</ele>
        <time>2014-03-04T15:29:40Z</time>
      </trkpt>
      <trkpt lat="44.47265" lon="1.30745">
        <ele>231</ele>
        <time>2014-03-04T15:29:51Z</time>
      </trkpt>
      <trkpt lat="44.47268" lon="1.30743">
        <ele>230</ele>
        <time>2014-03-04T15:30:07Z</time>
      </trkpt>
      <trkpt lat="44.47261" lon="1.30737">
        <ele>229</ele>
        <time>2014-03-04T15:30:17Z</time>
      </trkpt>
      <trkpt lat="44.47262" lon="1.3073">
        <ele>228</ele>
        <time>2014-03-04T15:30:21Z</time>
      </trkpt>
      <trkpt lat="44.47264" lon="1.30728">
        <ele>227</ele>
        <time>2014-03-04T15:30:23Z</time>
      </trkpt>
      <trkpt lat="44.47267" lon="1.30723">
        <ele>227</ele>
        <time>2014-03-04T15:30:28Z</time>
      </trkpt>
      <trkpt lat="44.47267" lon="1.30719">
        <ele>227</ele>
        <time>2014-03-04T15:30:33Z</time>
      </trkpt>
      <trkpt lat="44.47276" lon="1.30695">
        <ele>223</ele>
        <time>2014-03-04T15:30:51Z</time>
      </trkpt>
      <trkpt lat="44.47283" lon="1.30675">
        <ele>220</ele>
        <time>2014-03-04T15:31:06Z</time>
      </trkpt>
      <trkpt lat="44.47285" lon="1.30667">
        <ele>219</ele>
        <time>2014-03-04T15:31:12Z</time>
      </trkpt>
      <trkpt lat="44.47287" lon="1.30661">
        <ele>219</ele>
        <time>2014-03-04T15:31:16Z</time>
      </trkpt>
      <trkpt lat="44.4729" lon="1.30646">
        <ele>217</ele>
        <time>2014-03-04T15:31:26Z</time>
      </trkpt>
      <trkpt lat="44.47295" lon="1.30631">
        <ele>216</ele>
        <time>2014-03-04T15:31:37Z</time>
      </trkpt>
      <trkpt lat="44.47299" lon="1.30624">
        <ele>214</ele>
        <time>2014-03-04T15:31:42Z</time>
      </trkpt>
      <trkpt lat="44.47302" lon="1.30618">
        <ele>212</ele>
        <time>2014-03-04T15:31:46Z</time>
      </trkpt>
      <trkpt lat="44.47307" lon="1.30608">
        <ele>210</ele>
        <time>2014-03-04T15:31:54Z</time>
      </trkpt>
      <trkpt lat="44.47313" lon="1.30602">
        <ele>208</ele>
        <time>2014-03-04T15:32:01Z</time>
      </trkpt>
      <trkpt lat="44.47318" lon="1.30599">
        <ele>207</ele>
        <time>2014-03-04T15:32:06Z</time>
      </trkpt>
      <trkpt lat="44.4733" lon="1.30584">
        <ele>204</ele>
        <time>2014-03-04T15:32:21Z</time>
      </trkpt>
      <trkpt lat="44.4734" lon="1.30568">
        <ele>202</ele>
        <time>2014-03-04T15:32:36Z</time>
      </trkpt>
      <trkpt lat="44.47348" lon="1.30548">
        <ele>199</ele>
        <time>2014-03-04T15:32:53Z</time>
      </trkpt>
      <trkpt lat="44.4735" lon="1.30545">
        <ele>199</ele>
        <time>2014-03-04T15:32:55Z</time>
      </trkpt>
      <trkpt lat="44.47354" lon="1.30541">
        <ele>200</ele>
        <time>2014-03-04T15:32:59Z</time>
      </trkpt>
      <trkpt lat="44.4736" lon="1.30528">
        <ele>198</ele>
        <time>2014-03-04T15:33:09Z</time>
      </trkpt>
      <trkpt lat="44.47367" lon="1.30517">
        <ele>196</ele>
        <time>2014-03-04T15:33:18Z</time>
      </trkpt>
      <trkpt lat="44.47377" lon="1.30495">
        <ele>195</ele>
        <time>2014-03-04T15:33:33Z</time>
      </trkpt>
      <trkpt lat="44.4739" lon="1.30476">
        <ele>192</ele>
        <time>2014-03-04T15:33:49Z</time>
      </trkpt>
      <trkpt lat="44.47391" lon="1.30472">
        <ele>191</ele>
        <time>2014-03-04T15:33:52Z</time>
      </trkpt>
      <trkpt lat="44.47393" lon="1.30469">
        <ele>191</ele>
        <time>2014-03-04T15:33:54Z</time>
      </trkpt>
      <trkpt lat="44.47405" lon="1.30452">
        <ele>188</ele>
        <time>2014-03-04T15:34:09Z</time>
      </trkpt>
      <trkpt lat="44.47409" lon="1.30448">
        <ele>186</ele>
        <time>2014-03-04T15:34:14Z</time>
      </trkpt>
      <trkpt lat="44.47423" lon="1.30432">
        <ele>182</ele>
        <time>2014-03-04T15:34:31Z</time>
      </trkpt>
      <trkpt lat="44.47424" lon="1.30432">
        <ele>181</ele>
        <time>2014-03-04T15:34:32Z</time>
      </trkpt>
      <trkpt lat="44.47429" lon="1.30428">
        <ele>180</ele>
        <time>2014-03-04T15:34:38Z</time>
      </trkpt>
      <trkpt lat="44.47437" lon="1.30422">
        <ele>176</ele>
        <time>2014-03-04T15:34:48Z</time>
      </trkpt>
      <trkpt lat="44.47447" lon="1.30417">
        <ele>173</ele>
        <time>2014-03-04T15:34:58Z</time>
      </trkpt>
      <trkpt lat="44.47465" lon="1.30411">
        <ele>168</ele>
        <time>2014-03-04T15:35:15Z</time>
      </trkpt>
      <trkpt lat="44.47477" lon="1.30408">
        <ele>164</ele>
        <time>2014-03-04T15:35:28Z</time>
      </trkpt>
      <trkpt lat="44.47495" lon="1.30401">
        <ele>161</ele>
        <time>2014-03-04T15:35:45Z</time>
      </trkpt>
      <trkpt lat="44.47514" lon="1.30397">
        <ele>158</ele>
        <time>2014-03-04T15:36:03Z</time>
      </trkpt>
      <trkpt lat="44.47526" lon="1.30395">
        <ele>156</ele>
        <time>2014-03-04T15:36:13Z</time>
      </trkpt>
      <trkpt lat="44.47545" lon="1.30388">
        <ele>156</ele>
        <time>2014-03-04T15:36:30Z</time>
      </trkpt>
      <trkpt lat="44.4756" lon="1.30382">
        <ele>154</ele>
        <time>2014-03-04T15:36:45Z</time>
      </trkpt>
      <trkpt lat="44.47571" lon="1.30375">
        <ele>151</ele>
        <time>2014-03-04T15:37:00Z</time>
      </trkpt>
      <trkpt lat="44.47587" lon="1.30363">
        <ele>150</ele>
        <time>2014-03-04T15:37:18Z</time>
      </trkpt>
      <trkpt lat="44.47592" lon="1.30357">
        <ele>148</ele>
        <time>2014-03-04T15:37:25Z</time>
      </trkpt>
      <trkpt lat="44.47598" lon="1.3034">
        <ele>148</ele>
        <time>2014-03-04T15:37:40Z</time>
      </trkpt>
      <trkpt lat="44.47609" lon="1.30322">
        <ele>145</ele>
        <time>2014-03-04T15:37:58Z</time>
      </trkpt>
      <trkpt lat="44.47615" lon="1.30311">
        <ele>144</ele>
        <time>2014-03-04T15:38:06Z</time>
      </trkpt>
      <trkpt lat="44.47624" lon="1.30279">
        <ele>145</ele>
        <time>2014-03-04T15:38:24Z</time>
      </trkpt>
      <trkpt lat="44.47633" lon="1.30249">
        <ele>146</ele>
        <time>2014-03-04T15:38:42Z</time>
      </trkpt>
      <trkpt lat="44.47636" lon="1.30227">
        <ele>144</ele>
        <time>2014-03-04T15:38:54Z</time>
      </trkpt>
      <trkpt lat="44.47636" lon="1.30223">
        <ele>144</ele>
        <time>2014-03-04T15:38:57Z</time>
      </trkpt>
      <trkpt lat="44.47627" lon="1.30214">
        <ele>142</ele>
        <time>2014-03-04T15:39:07Z</time>
      </trkpt>
      <trkpt lat="44.47622" lon="1.30209">
        <ele>141</ele>
        <time>2014-03-04T15:39:12Z</time>
      </trkpt>
      <trkpt lat="44.47612" lon="1.30198">
        <ele>138</ele>
        <time>2014-03-04T15:39:23Z</time>
      </trkpt>
      <trkpt lat="44.47594" lon="1.30181">
        <ele>136</ele>
        <time>2014-03-04T15:39:43Z</time>
      </trkpt>
      <trkpt lat="44.47594" lon="1.30181">
        <ele>136</ele>
        <time>2014-03-04T15:39:47Z</time>
      </trkpt>
      <trkpt lat="44.47582" lon="1.30173">
        <ele>137</ele>
        <time>2014-03-04T15:39:59Z</time>
      </trkpt>
      <trkpt lat="44.47564" lon="1.30156">
        <ele>136</ele>
        <time>2014-03-04T15:40:15Z</time>
      </trkpt>
      <trkpt lat="44.47547" lon="1.30139">
        <ele>135</ele>
        <time>2014-03-04T15:40:32Z</time>
      </trkpt>
      <trkpt lat="44.4754" lon="1.30131">
        <ele>136</ele>
        <time>2014-03-04T15:40:39Z</time>
      </trkpt>
      <trkpt lat="44.47525" lon="1.30118">
        <ele>135</ele>
        <time>2014-03-04T15:40:54Z</time>
      </trkpt>
      <trkpt lat="44.47506" lon="1.30106">
        <ele>135</ele>
        <time>2014-03-04T15:41:12Z</time>
      </trkpt>
      <trkpt lat="44.47483" lon="1.3009">
        <ele>133</ele>
        <time>2014-03-04T15:41:32Z</time>
      </trkpt>
      <trkpt lat="44.4747" lon="1.30084">
        <ele>133</ele>
        <time>2014-03-04T15:41:43Z</time>
      </trkpt>
      <trkpt lat="44.47462" lon="1.3008">
        <ele>132</ele>
        <time>2014-03-04T15:41:50Z</time>
      </trkpt>
      <trkpt lat="44.47438" lon="1.30074">
        <ele>129</ele>
        <time>2014-03-04T15:42:09Z</time>
      </trkpt>
      <trkpt lat="44.47428" lon="1.30071">
        <ele>127</ele>
        <time>2014-03-04T15:42:17Z</time>
      </trkpt>
      <trkpt lat="44.47426" lon="1.30072">
        <ele>126</ele>
        <time>2014-03-04T15:42:19Z</time>
      </trkpt>
      <trkpt lat="44.47405" lon="1.30074">
        <ele>124</ele>
        <time>2014-03-04T15:42:37Z</time>
      </trkpt>
      <trkpt lat="44.47396" lon="1.30074">
        <ele>123</ele>
        <time>2014-03-04T15:42:43Z</time>
      </trkpt>
      <trkpt lat="44.47387" lon="1.30075">
        <ele>121</ele>
        <time>2014-03-04T15:42:51Z</time>
      </trkpt>
      <trkpt lat="44.47379" lon="1.30075">
        <ele>120</ele>
        <time>2014-03-04T15:42:57Z</time>
      </trkpt>
      <trkpt lat="44.4737" lon="1.30071">
        <ele>120</ele>
        <time>2014-03-04T15:43:05Z</time>
      </trkpt>
      <trkpt lat="44.4736" lon="1.30066">
        <ele>116</ele>
        <time>2014-03-04T15:43:15Z</time>
      </trkpt>
      <trkpt lat="44.4735" lon="1.30073">
        <ele>115</ele>
        <time>2014-03-04T15:43:28Z</time>
      </trkpt>
      <trkpt lat="44.47348" lon="1.30082">
        <ele>116</ele>
        <time>2014-03-04T15:43:41Z</time>
      </trkpt>
      <trkpt lat="44.47348" lon="1.30087">
        <ele>117</ele>
        <time>2014-03-04T15:43:46Z</time>
      </trkpt>
      <trkpt lat="44.47343" lon="1.30106">
        <ele>120</ele>
        <time>2014-03-04T15:44:03Z</time>
      </trkpt>
      <trkpt lat="44.47336" lon="1.30123">
        <ele>122</ele>
        <time>2014-03-04T15:44:15Z</time>
      </trkpt>
      <trkpt lat="44.47335" lon="1.30128">
        <ele>122</ele>
        <time>2014-03-04T15:44:18Z</time>
      </trkpt>
      <trkpt lat="44.47331" lon="1.30144">
        <ele>123</ele>
        <time>2014-03-04T15:44:33Z</time>
      </trkpt>
      <trkpt lat="44.47322" lon="1.30162">
        <ele>128</ele>
        <time>2014-03-04T15:44:45Z</time>
      </trkpt>
      <trkpt lat="44.47319" lon="1.30163">
        <ele>128</ele>
        <time>2014-03-04T15:44:48Z</time>
      </trkpt>
      <trkpt lat="44.47301" lon="1.30171">
        <ele>122</ele>
        <time>2014-03-04T15:45:04Z</time>
      </trkpt>
      <trkpt lat="44.47287" lon="1.30174">
        <ele>112</ele>
        <time>2014-03-04T15:45:18Z</time>
      </trkpt>
      <trkpt lat="44.47274" lon="1.30176">
        <ele>101</ele>
        <time>2014-03-04T15:45:32Z</time>
      </trkpt>
      <trkpt lat="44.47258" lon="1.3018">
        <ele>91</ele>
        <time>2014-03-04T15:45:48Z</time>
      </trkpt>
      <trkpt lat="44.47243" lon="1.30181">
        <ele>86</ele>
        <time>2014-03-04T15:46:02Z</time>
      </trkpt>
      <trkpt lat="44.47242" lon="1.30182">
        <ele>86</ele>
        <time>2014-03-04T15:46:03Z</time>
      </trkpt>
      <trkpt lat="44.47238" lon="1.30182">
        <ele>85</ele>
        <time>2014-03-04T15:46:06Z</time>
      </trkpt>
      <trkpt lat="44.47232" lon="1.30182">
        <ele>84</ele>
        <time>2014-03-04T15:46:11Z</time>
      </trkpt>
      <trkpt lat="44.47222" lon="1.30178">
        <ele>82</ele>
        <time>2014-03-04T15:46:20Z</time>
      </trkpt>
      <trkpt lat="44.4721" lon="1.30175">
        <ele>82</ele>
        <time>2014-03-04T15:46:30Z</time>
      </trkpt>
      <trkpt lat="44.47188" lon="1.30165">
        <ele>85</ele>
        <time>2014-03-04T15:46:48Z</time>
      </trkpt>
      <trkpt lat="44.47187" lon="1.30164">
        <ele>85</ele>
        <time>2014-03-04T15:46:49Z</time>
      </trkpt>
      <trkpt lat="44.47166" lon="1.30152">
        <ele>90</ele>
        <time>2014-03-04T15:47:06Z</time>
      </trkpt>
      <trkpt lat="44.47156" lon="1.30146">
        <ele>91</ele>
        <time>2014-03-04T15:47:16Z</time>
      </trkpt>
      <trkpt lat="44.47143" lon="1.30142">
        <ele>83</ele>
        <time>2014-03-04T15:47:31Z</time>
      </trkpt>
      <trkpt lat="44.47133" lon="1.30142">
        <ele>76</ele>
        <time>2014-03-04T15:47:44Z</time>
      </trkpt>
      <trkpt lat="44.4712" lon="1.30142">
        <ele>65</ele>
        <time>2014-03-04T15:48:01Z</time>
      </trkpt>
      <trkpt lat="44.47116" lon="1.30142">
        <ele>62</ele>
        <time>2014-03-04T15:48:05Z</time>
      </trkpt>
      <trkpt lat="44.47112" lon="1.30143">
        <ele>59</ele>
        <time>2014-03-04T15:48:09Z</time>
      </trkpt>
      <trkpt lat="44.47105" lon="1.30139">
        <ele>56</ele>
        <time>2014-03-04T15:48:16Z</time>
      </trkpt>
      <trkpt lat="44.47083" lon="1.30127">
        <ele>60</ele>
        <time>2014-03-04T15:48:33Z</time>
      </trkpt>
      <trkpt lat="44.47069" lon="1.30119">
        <ele>69</ele>
        <time>2014-03-04T15:48:43Z</time>
      </trkpt>
      <trkpt lat="44.47057" lon="1.30114">
        <ele>77</ele>
        <time>2014-03-04T15:48:52Z</time>
      </trkpt>
      <trkpt lat="44.47031" lon="1.30098">
        <ele>99</ele>
        <time>2014-03-04T15:49:09Z</time>
      </trkpt>
      <trkpt lat="44.47019" lon="1.30094">
        <ele>106</ele>
        <time>2014-03-04T15:49:17Z</time>
      </trkpt>
      <trkpt lat="44.46994" lon="1.30089">
        <ele>118</ele>
        <time>2014-03-04T15:49:35Z</time>
      </trkpt>
      <trkpt lat="44.46989" lon="1.30087">
        <ele>120</ele>
        <time>2014-03-04T15:49:39Z</time>
      </trkpt>
      <trkpt lat="44.46971" lon="1.30084">
        <ele>126</ele>
        <time>2014-03-04T15:49:55Z</time>
      </trkpt>
      <trkpt lat="44.46967" lon="1.30082">
        <ele>127</ele>
        <time>2014-03-04T15:50:01Z</time>
      </trkpt>
      <trkpt lat="44.46947" lon="1.30084">
        <ele>130</ele>
        <time>2014-03-04T15:50:17Z</time>
      </trkpt>
      <trkpt lat="44.46922" lon="1.30082">
        <ele>132</ele>
        <time>2014-03-04T15:50:36Z</time>
      </trkpt>
      <trkpt lat="44.46899" lon="1.30082">
        <ele>133</ele>
        <time>2014-03-04T15:50:54Z</time>
      </trkpt>
      <trkpt lat="44.46878" lon="1.30083">
        <ele>136</ele>
        <time>2014-03-04T15:51:11Z</time>
      </trkpt>
      <trkpt lat="44.46867" lon="1.30083">
        <ele>137</ele>
        <time>2014-03-04T15:51:20Z</time>
      </trkpt>
      <trkpt lat="44.46847" lon="1.30081">
        <ele>138</ele>
        <time>2014-03-04T15:51:37Z</time>
      </trkpt>
      <trkpt lat="44.46831" lon="1.30082">
        <ele>133</ele>
        <time>2014-03-04T15:51:53Z</time>
      </trkpt>
      <trkpt lat="44.46822" lon="1.30085">
        <ele>129</ele>
        <time>2014-03-04T15:52:04Z</time>
      </trkpt>
      <trkpt lat="44.46811" lon="1.30088">
        <ele>124</ele>
        <time>2014-03-04T15:52:17Z</time>
      </trkpt>
      <trkpt lat="44.468" lon="1.30093">
        <ele>120</ele>
        <time>2014-03-04T15:52:28Z</time>
      </trkpt>
      <trkpt lat="44.46796" lon="1.30097">
        <ele>119</ele>
        <time>2014-03-04T15:52:32Z</time>
      </trkpt>
      <trkpt lat="44.46781" lon="1.30101">
        <ele>114</ele>
        <time>2014-03-04T15:52:45Z</time>
      </trkpt>
      <trkpt lat="44.46764" lon="1.30104">
        <ele>108</ele>
        <time>2014-03-04T15:53:00Z</time>
      </trkpt>
      <trkpt lat="44.46762" lon="1.30105">
        <ele>106</ele>
        <time>2014-03-04T15:53:03Z</time>
      </trkpt>
      <trkpt lat="44.46758" lon="1.30108">
        <ele>104</ele>
        <time>2014-03-04T15:53:07Z</time>
      </trkpt>
      <trkpt lat="44.46746" lon="1.3011">
        <ele>102</ele>
        <time>2014-03-04T15:53:18Z</time>
      </trkpt>
      <trkpt lat="44.4673" lon="1.30108">
        <ele>98</ele>
        <time>2014-03-04T15:53:33Z</time>
      </trkpt>
      <trkpt lat="44.4672" lon="1.30105">
        <ele>94</ele>
        <time>2014-03-04T15:53:42Z</time>
      </trkpt>
      <trkpt lat="44.46699" lon="1.30085">
        <ele>108</ele>
        <time>2014-03-04T15:53:58Z</time>
      </trkpt>
      <trkpt lat="44.46694" lon="1.3007">
        <ele>112</ele>
        <time>2014-03-04T15:54:11Z</time>
      </trkpt>
      <trkpt lat="44.46693" lon="1.30063">
        <ele>115</ele>
        <time>2014-03-04T15:54:26Z</time>
      </trkpt>
      <trkpt lat="44.46694" lon="1.3005">
        <ele>116</ele>
        <time>2014-03-04T15:54:35Z</time>
      </trkpt>
      <trkpt lat="44.46694" lon="1.30031">
        <ele>119</ele>
        <time>2014-03-04T15:54:48Z</time>
      </trkpt>
      <trkpt lat="44.46693" lon="1.30025">
        <ele>119</ele>
        <time>2014-03-04T15:54:54Z</time>
      </trkpt>
      <trkpt lat="44.46688" lon="1.30019">
        <ele>119</ele>
        <time>2014-03-04T15:55:08Z</time>
      </trkpt>
      <trkpt lat="44.46681" lon="1.30016">
        <ele>120</ele>
        <time>2014-03-04T15:55:14Z</time>
      </trkpt>
      <trkpt lat="44.46672" lon="1.30015">
        <ele>119</ele>
        <time>2014-03-04T15:55:23Z</time>
      </trkpt>
      <trkpt lat="44.4667" lon="1.30016">
        <ele>118</ele>
        <time>2014-03-04T15:55:25Z</time>
      </trkpt>
      <trkpt lat="44.46663" lon="1.30015">
        <ele>117</ele>
        <time>2014-03-04T15:55:31Z</time>
      </trkpt>
      <trkpt lat="44.46661" lon="1.30015">
        <ele>117</ele>
        <time>2014-03-04T15:55:33Z</time>
      </trkpt>
      <trkpt lat="44.46647" lon="1.30015">
        <ele>115</ele>
        <time>2014-03-04T15:55:47Z</time>
      </trkpt>
      <trkpt lat="44.46639" lon="1.30015">
        <ele>112</ele>
        <time>2014-03-04T15:55:57Z</time>
      </trkpt>
      <trkpt lat="44.46628" lon="1.30013">
        <ele>109</ele>
        <time>2014-03-04T15:56:19Z</time>
      </trkpt>
      <trkpt lat="44.46619" lon="1.30012">
        <ele>109</ele>
        <time>2014-03-04T15:56:36Z</time>
      </trkpt>
      <trkpt lat="44.46604" lon="1.30021">
        <ele>107</ele>
        <time>2014-03-04T15:56:53Z</time>
      </trkpt>
      <trkpt lat="44.46603" lon="1.30023">
        <ele>107</ele>
        <time>2014-03-04T15:57:03Z</time>
      </trkpt>
      <trkpt lat="44.466" lon="1.30017">
        <ele>107</ele>
        <time>2014-03-04T15:57:10Z</time>
      </trkpt>
      <trkpt lat="44.46598" lon="1.30013">
        <ele>107</ele>
        <time>2014-03-04T15:57:13Z</time>
      </trkpt>
      <trkpt lat="44.46588" lon="1.30003">
        <ele>104</ele>
        <time>2014-03-04T15:57:24Z</time>
      </trkpt>
      <trkpt lat="44.46584" lon="1.30006">
        <ele>103</ele>
        <time>2014-03-04T15:57:28Z</time>
      </trkpt>
      <trkpt lat="44.46583" lon="1.3001">
        <ele>102</ele>
        <time>2014-03-04T15:57:31Z</time>
      </trkpt>
      <trkpt lat="44.46572" lon="1.3003">
        <ele>99</ele>
        <time>2014-03-04T15:57:46Z</time>
      </trkpt>
      <trkpt lat="44.46566" lon="1.30044">
        <ele>94</ele>
        <time>2014-03-04T15:57:59Z</time>
      </trkpt>
      <trkpt lat="44.46563" lon="1.30041">
        <ele>92</ele>
        <time>2014-03-04T15:58:05Z</time>
      </trkpt>
      <trkpt lat="44.46553" lon="1.30032">
        <ele>90</ele>
        <time>2014-03-04T15:58:24Z</time>
      </trkpt>
      <trkpt lat="44.46549" lon="1.3003">
        <ele>91</ele>
        <time>2014-03-04T15:58:31Z</time>
      </trkpt>
      <trkpt lat="44.46542" lon="1.30029">
        <ele>91</ele>
        <time>2014-03-04T15:58:36Z</time>
      </trkpt>
      <trkpt lat="44.46537" lon="1.30021">
        <ele>92</ele>
        <time>2014-03-04T15:58:41Z</time>
      </trkpt>
      <trkpt lat="44.46526" lon="1.30003">
        <ele>94</ele>
        <time>2014-03-04T15:58:54Z</time>
      </trkpt>
      <trkpt lat="44.46509" lon="1.30005">
        <ele>95</ele>
        <time>2014-03-04T15:59:09Z</time>
      </trkpt>
      <trkpt lat="44.46509" lon="1.30004">
        <ele>95</ele>
        <time>2014-03-04T15:59:20Z</time>
      </trkpt>
    </trkseg>
  </trk>
</gpx>